<?xml version="1.0" encoding="UTF-8" standalone="no" ?>
<gpx xmlns="http://www.topografix.com/GPX/1/1" xmlns:xsi="http://www.w3.org/2001/XMLSchema-instance" xsi:schemaLocation="http://www.topografix.com/GPX/1/1 http://www.topografix.com/GPX/1/1/gpx.xsd" version="1.1" creator="VisuGPX - https://www.visugpx.com">
  <metadata>
    <name>jeudi 12 février 2015 mayn e_ poumarey</name>
    <desc><![CDATA[église_  -dare     l marcettou   faget- carreterre_lafag    poumarey]]></desc>
  </metadata>
  <wpt lat="44.2195" lon="0.68325">
    <ele>155</ele>
    <name><![CDATA[bois de darel]]></name>
    <desc><![CDATA[Hauteur de 155 m]]></desc>
    <cmt><![CDATA[Hauteur de 155 m]]></cmt>
  </wpt>
  <wpt lat="44.21222" lon="0.6998">
    <ele>161</ele>
    <name><![CDATA[Chemin_ milieu champ]]></name>
    <desc><![CDATA[Chemin]]></desc>
    <cmt><![CDATA[Chemin]]></cmt>
  </wpt>
  <wpt lat="44.21529" lon="0.69242">
    <ele>163.59375</ele>
    <name><![CDATA[Faget]]></name>
    <desc><![CDATA[Faget]]></desc>
    <cmt><![CDATA[Faget]]></cmt>
  </wpt>
  <wpt lat="44.22684" lon="0.69495">
    <ele>153.78125</ele>
    <name><![CDATA[Guigues]]></name>
    <desc><![CDATA[Guigues]]></desc>
    <cmt><![CDATA[Guigues]]></cmt>
  </wpt>
  <wpt lat="44.23106" lon="0.6998">
    <ele>100</ele>
    <name><![CDATA[jeudi 12 février 2015]]></name>
    <desc><![CDATA[Hauteur de 100 m]]></desc>
    <cmt><![CDATA[Hauteur de 100 m]]></cmt>
  </wpt>
  <wpt lat="44.21804" lon="0.70259">
    <ele>126.21875</ele>
    <name><![CDATA[Maine Du Prat]]></name>
    <desc><![CDATA[Maine Du Prat]]></desc>
    <cmt><![CDATA[Maine Du Prat]]></cmt>
  </wpt>
  <wpt lat="44.21218" lon="0.68952">
    <ele>160.66015625</ele>
    <name><![CDATA[Marcettou]]></name>
    <desc><![CDATA[Marcettou]]></desc>
    <cmt><![CDATA[Marcettou]]></cmt>
  </wpt>
  <trk>
    <name><![CDATA[ACTIVE LOG 001]]></name>
    <trkseg>
      <trkpt lat="44.23213" lon="0.68162">
        <ele>66.948974609375</ele>
        <time>2015-02-12T13:02:29Z</time>
      </trkpt>
      <trkpt lat="44.23203" lon="0.68156">
        <ele>70.794189453125</ele>
        <time>2015-02-12T13:02:44Z</time>
      </trkpt>
      <trkpt lat="44.23189" lon="0.6816">
        <ele>81.849365234375</ele>
        <time>2015-02-12T13:02:56Z</time>
      </trkpt>
      <trkpt lat="44.23185" lon="0.68167">
        <ele>70.794189453125</ele>
        <time>2015-02-12T13:03:05Z</time>
      </trkpt>
      <trkpt lat="44.2317" lon="0.68181">
        <ele>65.987670898438</ele>
        <time>2015-02-12T13:03:23Z</time>
      </trkpt>
      <trkpt lat="44.23168" lon="0.68188">
        <ele>47.241821289062</ele>
        <time>2015-02-12T13:03:29Z</time>
      </trkpt>
      <trkpt lat="44.23163" lon="0.68184">
        <ele>50.1259765625</ele>
        <time>2015-02-12T13:03:33Z</time>
      </trkpt>
      <trkpt lat="44.23156" lon="0.68183">
        <ele>53.97119140625</ele>
        <time>2015-02-12T13:03:38Z</time>
      </trkpt>
      <trkpt lat="44.2315" lon="0.68186">
        <ele>54.451782226562</ele>
        <time>2015-02-12T13:03:45Z</time>
      </trkpt>
      <trkpt lat="44.23148" lon="0.68188">
        <ele>54.932373046875</ele>
        <time>2015-02-12T13:03:49Z</time>
      </trkpt>
      <trkpt lat="44.23141" lon="0.68203">
        <ele>54.932373046875</ele>
        <time>2015-02-12T13:04:03Z</time>
      </trkpt>
      <trkpt lat="44.23138" lon="0.68227">
        <ele>55.4130859375</ele>
        <time>2015-02-12T13:04:19Z</time>
      </trkpt>
      <trkpt lat="44.23136" lon="0.68229">
        <ele>55.893798828125</ele>
        <time>2015-02-12T13:04:22Z</time>
      </trkpt>
      <trkpt lat="44.23131" lon="0.68238">
        <ele>58.297119140625</ele>
        <time>2015-02-12T13:04:31Z</time>
      </trkpt>
      <trkpt lat="44.23125" lon="0.68255">
        <ele>63.584350585938</ele>
        <time>2015-02-12T13:04:46Z</time>
      </trkpt>
      <trkpt lat="44.23125" lon="0.68257">
        <ele>63.584350585938</ele>
        <time>2015-02-12T13:04:47Z</time>
      </trkpt>
      <trkpt lat="44.23122" lon="0.68263">
        <ele>65.987670898438</ele>
        <time>2015-02-12T13:04:52Z</time>
      </trkpt>
      <trkpt lat="44.23119" lon="0.68269">
        <ele>68.390869140625</ele>
        <time>2015-02-12T13:04:57Z</time>
      </trkpt>
      <trkpt lat="44.23112" lon="0.68284">
        <ele>71.755493164062</ele>
        <time>2015-02-12T13:05:10Z</time>
      </trkpt>
      <trkpt lat="44.23097" lon="0.6829">
        <ele>74.158813476562</ele>
        <time>2015-02-12T13:05:26Z</time>
      </trkpt>
      <trkpt lat="44.23089" lon="0.68307">
        <ele>73.197631835938</ele>
        <time>2015-02-12T13:05:47Z</time>
      </trkpt>
      <trkpt lat="44.23088" lon="0.68309">
        <ele>73.197631835938</ele>
        <time>2015-02-12T13:05:48Z</time>
      </trkpt>
      <trkpt lat="44.23087" lon="0.68316">
        <ele>72.716918945312</ele>
        <time>2015-02-12T13:05:53Z</time>
      </trkpt>
      <trkpt lat="44.23069" lon="0.68315">
        <ele>74.158813476562</ele>
        <time>2015-02-12T13:06:09Z</time>
      </trkpt>
      <trkpt lat="44.23067" lon="0.68316">
        <ele>75.120239257812</ele>
        <time>2015-02-12T13:06:11Z</time>
      </trkpt>
      <trkpt lat="44.2306" lon="0.68319">
        <ele>75.600830078125</ele>
        <time>2015-02-12T13:06:17Z</time>
      </trkpt>
      <trkpt lat="44.23057" lon="0.68329">
        <ele>75.600830078125</ele>
        <time>2015-02-12T13:06:24Z</time>
      </trkpt>
      <trkpt lat="44.23048" lon="0.68341">
        <ele>74.158813476562</ele>
        <time>2015-02-12T13:06:37Z</time>
      </trkpt>
      <trkpt lat="44.23031" lon="0.68359">
        <ele>76.562133789062</ele>
        <time>2015-02-12T13:06:56Z</time>
      </trkpt>
      <trkpt lat="44.23001" lon="0.68362">
        <ele>81.849365234375</ele>
        <time>2015-02-12T13:07:23Z</time>
      </trkpt>
      <trkpt lat="44.22979" lon="0.68363">
        <ele>84.252685546875</ele>
        <time>2015-02-12T13:07:43Z</time>
      </trkpt>
      <trkpt lat="44.22962" lon="0.68366">
        <ele>83.291381835938</ele>
        <time>2015-02-12T13:07:59Z</time>
      </trkpt>
      <trkpt lat="44.22937" lon="0.68367">
        <ele>86.17529296875</ele>
        <time>2015-02-12T13:08:20Z</time>
      </trkpt>
      <trkpt lat="44.22917" lon="0.6837">
        <ele>87.136596679688</ele>
        <time>2015-02-12T13:08:38Z</time>
      </trkpt>
      <trkpt lat="44.22902" lon="0.68367">
        <ele>83.77197265625</ele>
        <time>2015-02-12T13:08:55Z</time>
      </trkpt>
      <trkpt lat="44.22883" lon="0.68354">
        <ele>82.810791015625</ele>
        <time>2015-02-12T13:09:10Z</time>
      </trkpt>
      <trkpt lat="44.22869" lon="0.68327">
        <ele>82.330078125</ele>
        <time>2015-02-12T13:09:34Z</time>
      </trkpt>
      <trkpt lat="44.22864" lon="0.68308">
        <ele>85.213989257812</ele>
        <time>2015-02-12T13:09:47Z</time>
      </trkpt>
      <trkpt lat="44.22859" lon="0.68299">
        <ele>86.656005859375</ele>
        <time>2015-02-12T13:10:02Z</time>
      </trkpt>
      <trkpt lat="44.22858" lon="0.68298">
        <ele>86.656005859375</ele>
        <time>2015-02-12T13:10:25Z</time>
      </trkpt>
      <trkpt lat="44.22852" lon="0.68282">
        <ele>88.098022460938</ele>
        <time>2015-02-12T13:11:10Z</time>
      </trkpt>
      <trkpt lat="44.22847" lon="0.68274">
        <ele>89.539916992188</ele>
        <time>2015-02-12T13:11:16Z</time>
      </trkpt>
      <trkpt lat="44.22843" lon="0.68266">
        <ele>90.501342773438</ele>
        <time>2015-02-12T13:11:21Z</time>
      </trkpt>
      <trkpt lat="44.22841" lon="0.68253">
        <ele>91.462524414062</ele>
        <time>2015-02-12T13:11:29Z</time>
      </trkpt>
      <trkpt lat="44.22833" lon="0.68227">
        <ele>91.462524414062</ele>
        <time>2015-02-12T13:11:45Z</time>
      </trkpt>
      <trkpt lat="44.22821" lon="0.68196">
        <ele>92.423950195312</ele>
        <time>2015-02-12T13:12:04Z</time>
      </trkpt>
      <trkpt lat="44.22813" lon="0.68168">
        <ele>92.423950195312</ele>
        <time>2015-02-12T13:12:20Z</time>
      </trkpt>
      <trkpt lat="44.22812" lon="0.68163">
        <ele>92.904541015625</ele>
        <time>2015-02-12T13:12:23Z</time>
      </trkpt>
      <trkpt lat="44.2281" lon="0.68156">
        <ele>92.423950195312</ele>
        <time>2015-02-12T13:12:27Z</time>
      </trkpt>
      <trkpt lat="44.2281" lon="0.68153">
        <ele>92.423950195312</ele>
        <time>2015-02-12T13:12:29Z</time>
      </trkpt>
      <trkpt lat="44.22782" lon="0.6813">
        <ele>95.307739257812</ele>
        <time>2015-02-12T13:12:46Z</time>
      </trkpt>
      <trkpt lat="44.22767" lon="0.6811">
        <ele>94.346557617188</ele>
        <time>2015-02-12T13:13:03Z</time>
      </trkpt>
      <trkpt lat="44.22751" lon="0.68091">
        <ele>93.865844726562</ele>
        <time>2015-02-12T13:13:20Z</time>
      </trkpt>
      <trkpt lat="44.22726" lon="0.68075">
        <ele>94.346557617188</ele>
        <time>2015-02-12T13:13:40Z</time>
      </trkpt>
      <trkpt lat="44.22717" lon="0.68069">
        <ele>92.904541015625</ele>
        <time>2015-02-12T13:13:49Z</time>
      </trkpt>
      <trkpt lat="44.22703" lon="0.68058">
        <ele>95.307739257812</ele>
        <time>2015-02-12T13:14:03Z</time>
      </trkpt>
      <trkpt lat="44.22699" lon="0.68058">
        <ele>94.346557617188</ele>
        <time>2015-02-12T13:14:06Z</time>
      </trkpt>
      <trkpt lat="44.22675" lon="0.68049">
        <ele>95.307739257812</ele>
        <time>2015-02-12T13:14:26Z</time>
      </trkpt>
      <trkpt lat="44.22665" lon="0.68044">
        <ele>93.385131835938</ele>
        <time>2015-02-12T13:14:35Z</time>
      </trkpt>
      <trkpt lat="44.22656" lon="0.6804">
        <ele>92.423950195312</ele>
        <time>2015-02-12T13:14:44Z</time>
      </trkpt>
      <trkpt lat="44.22653" lon="0.68038">
        <ele>91.943237304688</ele>
        <time>2015-02-12T13:14:47Z</time>
      </trkpt>
      <trkpt lat="44.22635" lon="0.68019">
        <ele>85.694580078125</ele>
        <time>2015-02-12T13:15:05Z</time>
      </trkpt>
      <trkpt lat="44.22627" lon="0.67997">
        <ele>80.88818359375</ele>
        <time>2015-02-12T13:15:19Z</time>
      </trkpt>
      <trkpt lat="44.22622" lon="0.67975">
        <ele>76.562133789062</ele>
        <time>2015-02-12T13:15:33Z</time>
      </trkpt>
      <trkpt lat="44.22615" lon="0.6795">
        <ele>68.87158203125</ele>
        <time>2015-02-12T13:15:52Z</time>
      </trkpt>
      <trkpt lat="44.22613" lon="0.6794">
        <ele>70.3134765625</ele>
        <time>2015-02-12T13:16:11Z</time>
      </trkpt>
      <trkpt lat="44.22606" lon="0.67939">
        <ele>71.27490234375</ele>
        <time>2015-02-12T13:16:27Z</time>
      </trkpt>
      <trkpt lat="44.226" lon="0.67945">
        <ele>71.27490234375</ele>
        <time>2015-02-12T13:16:38Z</time>
      </trkpt>
      <trkpt lat="44.22598" lon="0.67946">
        <ele>71.755493164062</ele>
        <time>2015-02-12T13:16:41Z</time>
      </trkpt>
      <trkpt lat="44.22588" lon="0.67952">
        <ele>71.755493164062</ele>
        <time>2015-02-12T13:16:56Z</time>
      </trkpt>
      <trkpt lat="44.22586" lon="0.67954">
        <ele>72.236206054688</ele>
        <time>2015-02-12T13:16:59Z</time>
      </trkpt>
      <trkpt lat="44.22569" lon="0.67959">
        <ele>74.158813476562</ele>
        <time>2015-02-12T13:17:17Z</time>
      </trkpt>
      <trkpt lat="44.22564" lon="0.67961">
        <ele>74.639526367188</ele>
        <time>2015-02-12T13:17:23Z</time>
      </trkpt>
      <trkpt lat="44.22548" lon="0.6796">
        <ele>75.600830078125</ele>
        <time>2015-02-12T13:17:37Z</time>
      </trkpt>
      <trkpt lat="44.22537" lon="0.67963">
        <ele>75.600830078125</ele>
        <time>2015-02-12T13:17:49Z</time>
      </trkpt>
      <trkpt lat="44.22517" lon="0.67964">
        <ele>76.081420898438</ele>
        <time>2015-02-12T13:18:08Z</time>
      </trkpt>
      <trkpt lat="44.22495" lon="0.67962">
        <ele>78.965454101562</ele>
        <time>2015-02-12T13:18:28Z</time>
      </trkpt>
      <trkpt lat="44.22471" lon="0.6796">
        <ele>80.407470703125</ele>
        <time>2015-02-12T13:18:51Z</time>
      </trkpt>
      <trkpt lat="44.22452" lon="0.67956">
        <ele>82.330078125</ele>
        <time>2015-02-12T13:19:12Z</time>
      </trkpt>
      <trkpt lat="44.22427" lon="0.67953">
        <ele>86.656005859375</ele>
        <time>2015-02-12T13:19:40Z</time>
      </trkpt>
      <trkpt lat="44.22408" lon="0.67951">
        <ele>89.059326171875</ele>
        <time>2015-02-12T13:20:01Z</time>
      </trkpt>
      <trkpt lat="44.22385" lon="0.67948">
        <ele>93.385131835938</ele>
        <time>2015-02-12T13:20:28Z</time>
      </trkpt>
      <trkpt lat="44.22373" lon="0.67955">
        <ele>92.904541015625</ele>
        <time>2015-02-12T13:20:43Z</time>
      </trkpt>
      <trkpt lat="44.22368" lon="0.67961">
        <ele>93.385131835938</ele>
        <time>2015-02-12T13:20:52Z</time>
      </trkpt>
      <trkpt lat="44.22359" lon="0.67972">
        <ele>93.865844726562</ele>
        <time>2015-02-12T13:21:07Z</time>
      </trkpt>
      <trkpt lat="44.22357" lon="0.67975">
        <ele>94.8271484375</ele>
        <time>2015-02-12T13:21:11Z</time>
      </trkpt>
      <trkpt lat="44.22344" lon="0.67996">
        <ele>95.307739257812</ele>
        <time>2015-02-12T13:21:32Z</time>
      </trkpt>
      <trkpt lat="44.22333" lon="0.68012">
        <ele>95.788452148438</ele>
        <time>2015-02-12T13:21:52Z</time>
      </trkpt>
      <trkpt lat="44.22321" lon="0.68022">
        <ele>96.749877929688</ele>
        <time>2015-02-12T13:22:11Z</time>
      </trkpt>
      <trkpt lat="44.22311" lon="0.68029">
        <ele>99.6337890625</ele>
        <time>2015-02-12T13:22:28Z</time>
      </trkpt>
      <trkpt lat="44.22302" lon="0.6803">
        <ele>104.92102050781</ele>
        <time>2015-02-12T13:22:47Z</time>
      </trkpt>
      <trkpt lat="44.22294" lon="0.6804">
        <ele>106.84362792969</ele>
        <time>2015-02-12T13:23:10Z</time>
      </trkpt>
      <trkpt lat="44.2229" lon="0.68045">
        <ele>107.80505371094</ele>
        <time>2015-02-12T13:23:28Z</time>
      </trkpt>
      <trkpt lat="44.22288" lon="0.6805">
        <ele>108.28564453125</ele>
        <time>2015-02-12T13:23:42Z</time>
      </trkpt>
      <trkpt lat="44.22284" lon="0.68061">
        <ele>109.72766113281</ele>
        <time>2015-02-12T13:23:58Z</time>
      </trkpt>
      <trkpt lat="44.22278" lon="0.68072">
        <ele>113.09228515625</ele>
        <time>2015-02-12T13:24:15Z</time>
      </trkpt>
      <trkpt lat="44.22272" lon="0.68082">
        <ele>115.01489257812</ele>
        <time>2015-02-12T13:24:27Z</time>
      </trkpt>
      <trkpt lat="44.22262" lon="0.68094">
        <ele>116.9375</ele>
        <time>2015-02-12T13:24:43Z</time>
      </trkpt>
      <trkpt lat="44.22255" lon="0.68096">
        <ele>119.3408203125</ele>
        <time>2015-02-12T13:25:01Z</time>
      </trkpt>
      <trkpt lat="44.22251" lon="0.68097">
        <ele>119.82141113281</ele>
        <time>2015-02-12T13:25:29Z</time>
      </trkpt>
      <trkpt lat="44.22252" lon="0.681">
        <ele>118.86010742188</ele>
        <time>2015-02-12T13:26:12Z</time>
      </trkpt>
      <trkpt lat="44.2225" lon="0.68108">
        <ele>118.86010742188</ele>
        <time>2015-02-12T13:26:30Z</time>
      </trkpt>
      <trkpt lat="44.22242" lon="0.68118">
        <ele>120.78283691406</ele>
        <time>2015-02-12T13:26:45Z</time>
      </trkpt>
      <trkpt lat="44.22242" lon="0.68119">
        <ele>120.78283691406</ele>
        <time>2015-02-12T13:26:46Z</time>
      </trkpt>
      <trkpt lat="44.22238" lon="0.68122">
        <ele>120.78283691406</ele>
        <time>2015-02-12T13:26:50Z</time>
      </trkpt>
      <trkpt lat="44.22227" lon="0.6813">
        <ele>122.22473144531</ele>
        <time>2015-02-12T13:27:06Z</time>
      </trkpt>
      <trkpt lat="44.2221" lon="0.6814">
        <ele>120.30212402344</ele>
        <time>2015-02-12T13:27:21Z</time>
      </trkpt>
      <trkpt lat="44.2221" lon="0.68144">
        <ele>119.82141113281</ele>
        <time>2015-02-12T13:27:23Z</time>
      </trkpt>
      <trkpt lat="44.22204" lon="0.68147">
        <ele>118.86010742188</ele>
        <time>2015-02-12T13:27:29Z</time>
      </trkpt>
      <trkpt lat="44.22196" lon="0.68157">
        <ele>116.45678710938</ele>
        <time>2015-02-12T13:27:41Z</time>
      </trkpt>
      <trkpt lat="44.22195" lon="0.68158">
        <ele>116.45678710938</ele>
        <time>2015-02-12T13:27:42Z</time>
      </trkpt>
      <trkpt lat="44.22189" lon="0.68163">
        <ele>117.41821289062</ele>
        <time>2015-02-12T13:27:50Z</time>
      </trkpt>
      <trkpt lat="44.22179" lon="0.68171">
        <ele>117.89880371094</ele>
        <time>2015-02-12T13:28:01Z</time>
      </trkpt>
      <trkpt lat="44.22174" lon="0.68184">
        <ele>119.82141113281</ele>
        <time>2015-02-12T13:28:10Z</time>
      </trkpt>
      <trkpt lat="44.22164" lon="0.68204">
        <ele>123.66674804688</ele>
        <time>2015-02-12T13:28:29Z</time>
      </trkpt>
      <trkpt lat="44.22162" lon="0.68208">
        <ele>124.14733886719</ele>
        <time>2015-02-12T13:28:32Z</time>
      </trkpt>
      <trkpt lat="44.22158" lon="0.68225">
        <ele>129.43469238281</ele>
        <time>2015-02-12T13:28:48Z</time>
      </trkpt>
      <trkpt lat="44.2215" lon="0.68238">
        <ele>131.837890625</ele>
        <time>2015-02-12T13:29:08Z</time>
      </trkpt>
      <trkpt lat="44.22144" lon="0.68247">
        <ele>133.27990722656</ele>
        <time>2015-02-12T13:29:23Z</time>
      </trkpt>
      <trkpt lat="44.22139" lon="0.68253">
        <ele>133.27990722656</ele>
        <time>2015-02-12T13:29:41Z</time>
      </trkpt>
      <trkpt lat="44.22136" lon="0.6826">
        <ele>134.72192382812</ele>
        <time>2015-02-12T13:29:54Z</time>
      </trkpt>
      <trkpt lat="44.22133" lon="0.68271">
        <ele>136.16394042969</ele>
        <time>2015-02-12T13:30:12Z</time>
      </trkpt>
      <trkpt lat="44.22129" lon="0.68278">
        <ele>139.0478515625</ele>
        <time>2015-02-12T13:30:26Z</time>
      </trkpt>
      <trkpt lat="44.22124" lon="0.68295">
        <ele>145.29638671875</ele>
        <time>2015-02-12T13:30:43Z</time>
      </trkpt>
      <trkpt lat="44.22123" lon="0.68311">
        <ele>147.69970703125</ele>
        <time>2015-02-12T13:30:55Z</time>
      </trkpt>
      <trkpt lat="44.22126" lon="0.68329">
        <ele>148.66101074219</ele>
        <time>2015-02-12T13:31:11Z</time>
      </trkpt>
      <trkpt lat="44.22123" lon="0.68337">
        <ele>149.62231445312</ele>
        <time>2015-02-12T13:31:19Z</time>
      </trkpt>
      <trkpt lat="44.22126" lon="0.68342">
        <ele>148.18041992188</ele>
        <time>2015-02-12T13:31:34Z</time>
      </trkpt>
      <trkpt lat="44.22124" lon="0.68351">
        <ele>148.66101074219</ele>
        <time>2015-02-12T13:31:48Z</time>
      </trkpt>
      <trkpt lat="44.22124" lon="0.68367">
        <ele>150.10302734375</ele>
        <time>2015-02-12T13:32:05Z</time>
      </trkpt>
      <trkpt lat="44.22123" lon="0.68378">
        <ele>147.69970703125</ele>
        <time>2015-02-12T13:32:19Z</time>
      </trkpt>
      <trkpt lat="44.2212" lon="0.68391">
        <ele>144.81579589844</ele>
        <time>2015-02-12T13:32:34Z</time>
      </trkpt>
      <trkpt lat="44.22117" lon="0.68397">
        <ele>143.85437011719</ele>
        <time>2015-02-12T13:32:48Z</time>
      </trkpt>
      <trkpt lat="44.22123" lon="0.68408">
        <ele>143.85437011719</ele>
        <time>2015-02-12T13:33:04Z</time>
      </trkpt>
      <trkpt lat="44.22117" lon="0.68404">
        <ele>141.93176269531</ele>
        <time>2015-02-12T13:33:19Z</time>
      </trkpt>
      <trkpt lat="44.22105" lon="0.68404">
        <ele>141.45104980469</ele>
        <time>2015-02-12T13:33:41Z</time>
      </trkpt>
      <trkpt lat="44.22094" lon="0.68406">
        <ele>141.93176269531</ele>
        <time>2015-02-12T13:33:58Z</time>
      </trkpt>
      <trkpt lat="44.22088" lon="0.68412">
        <ele>141.45104980469</ele>
        <time>2015-02-12T13:34:21Z</time>
      </trkpt>
      <trkpt lat="44.22087" lon="0.68403">
        <ele>143.37365722656</ele>
        <time>2015-02-12T13:34:36Z</time>
      </trkpt>
      <trkpt lat="44.22095" lon="0.68388">
        <ele>144.81579589844</ele>
        <time>2015-02-12T13:34:54Z</time>
      </trkpt>
      <trkpt lat="44.22106" lon="0.68382">
        <ele>145.77709960938</ele>
        <time>2015-02-12T13:35:12Z</time>
      </trkpt>
      <trkpt lat="44.22109" lon="0.68373">
        <ele>147.21899414062</ele>
        <time>2015-02-12T13:35:23Z</time>
      </trkpt>
      <trkpt lat="44.22104" lon="0.68361">
        <ele>146.73840332031</ele>
        <time>2015-02-12T13:35:31Z</time>
      </trkpt>
      <trkpt lat="44.22106" lon="0.68357">
        <ele>146.2578125</ele>
        <time>2015-02-12T13:35:35Z</time>
      </trkpt>
      <trkpt lat="44.22107" lon="0.68342">
        <ele>144.81579589844</ele>
        <time>2015-02-12T13:35:45Z</time>
      </trkpt>
      <trkpt lat="44.22101" lon="0.68327">
        <ele>145.29638671875</ele>
        <time>2015-02-12T13:35:56Z</time>
      </trkpt>
      <trkpt lat="44.22099" lon="0.68307">
        <ele>145.29638671875</ele>
        <time>2015-02-12T13:36:12Z</time>
      </trkpt>
      <trkpt lat="44.22087" lon="0.68295">
        <ele>146.2578125</ele>
        <time>2015-02-12T13:36:28Z</time>
      </trkpt>
      <trkpt lat="44.22069" lon="0.68285">
        <ele>141.93176269531</ele>
        <time>2015-02-12T13:36:48Z</time>
      </trkpt>
      <trkpt lat="44.22058" lon="0.68281">
        <ele>141.93176269531</ele>
        <time>2015-02-12T13:37:03Z</time>
      </trkpt>
      <trkpt lat="44.22056" lon="0.68281">
        <ele>142.41247558594</ele>
        <time>2015-02-12T13:37:05Z</time>
      </trkpt>
      <trkpt lat="44.22044" lon="0.68291">
        <ele>146.2578125</ele>
        <time>2015-02-12T13:37:18Z</time>
      </trkpt>
      <trkpt lat="44.22043" lon="0.68291">
        <ele>146.73840332031</ele>
        <time>2015-02-12T13:37:19Z</time>
      </trkpt>
      <trkpt lat="44.22027" lon="0.6828">
        <ele>148.18041992188</ele>
        <time>2015-02-12T13:37:34Z</time>
      </trkpt>
      <trkpt lat="44.22018" lon="0.68278">
        <ele>149.1416015625</ele>
        <time>2015-02-12T13:37:45Z</time>
      </trkpt>
      <trkpt lat="44.22013" lon="0.68263">
        <ele>149.1416015625</ele>
        <time>2015-02-12T13:38:00Z</time>
      </trkpt>
      <trkpt lat="44.22007" lon="0.68244">
        <ele>148.18041992188</ele>
        <time>2015-02-12T13:38:13Z</time>
      </trkpt>
      <trkpt lat="44.22003" lon="0.68228">
        <ele>146.73840332031</ele>
        <time>2015-02-12T13:38:27Z</time>
      </trkpt>
      <trkpt lat="44.22003" lon="0.68212">
        <ele>146.73840332031</ele>
        <time>2015-02-12T13:38:43Z</time>
      </trkpt>
      <trkpt lat="44.22001" lon="0.68192">
        <ele>147.69970703125</ele>
        <time>2015-02-12T13:38:59Z</time>
      </trkpt>
      <trkpt lat="44.21998" lon="0.68183">
        <ele>146.73840332031</ele>
        <time>2015-02-12T13:39:10Z</time>
      </trkpt>
      <trkpt lat="44.21996" lon="0.68182">
        <ele>145.77709960938</ele>
        <time>2015-02-12T13:39:14Z</time>
      </trkpt>
      <trkpt lat="44.21989" lon="0.68175">
        <ele>145.29638671875</ele>
        <time>2015-02-12T13:39:27Z</time>
      </trkpt>
      <trkpt lat="44.21977" lon="0.68164">
        <ele>147.69970703125</ele>
        <time>2015-02-12T13:39:44Z</time>
      </trkpt>
      <trkpt lat="44.21969" lon="0.68161">
        <ele>148.66101074219</ele>
        <time>2015-02-12T13:39:51Z</time>
      </trkpt>
      <trkpt lat="44.21964" lon="0.68157">
        <ele>149.62231445312</ele>
        <time>2015-02-12T13:39:56Z</time>
      </trkpt>
      <trkpt lat="44.21949" lon="0.68141">
        <ele>150.10302734375</ele>
        <time>2015-02-12T13:40:12Z</time>
      </trkpt>
      <trkpt lat="44.21936" lon="0.68138">
        <ele>155.39025878906</ele>
        <time>2015-02-12T13:40:29Z</time>
      </trkpt>
      <trkpt lat="44.21933" lon="0.68133">
        <ele>158.27416992188</ele>
        <time>2015-02-12T13:40:48Z</time>
      </trkpt>
      <trkpt lat="44.21922" lon="0.68147">
        <ele>155.87097167969</ele>
        <time>2015-02-12T13:42:09Z</time>
      </trkpt>
      <trkpt lat="44.21913" lon="0.68154">
        <ele>156.3515625</ele>
        <time>2015-02-12T13:42:17Z</time>
      </trkpt>
      <trkpt lat="44.21896" lon="0.68168">
        <ele>157.31286621094</ele>
        <time>2015-02-12T13:42:33Z</time>
      </trkpt>
      <trkpt lat="44.21889" lon="0.68174">
        <ele>157.79357910156</ele>
        <time>2015-02-12T13:42:41Z</time>
      </trkpt>
      <trkpt lat="44.21876" lon="0.68188">
        <ele>158.75476074219</ele>
        <time>2015-02-12T13:42:56Z</time>
      </trkpt>
      <trkpt lat="44.21868" lon="0.68196">
        <ele>158.75476074219</ele>
        <time>2015-02-12T13:43:06Z</time>
      </trkpt>
      <trkpt lat="44.21867" lon="0.68198">
        <ele>158.75476074219</ele>
        <time>2015-02-12T13:43:08Z</time>
      </trkpt>
      <trkpt lat="44.21863" lon="0.68204">
        <ele>158.75476074219</ele>
        <time>2015-02-12T13:43:13Z</time>
      </trkpt>
      <trkpt lat="44.21861" lon="0.68207">
        <ele>159.23547363281</ele>
        <time>2015-02-12T13:43:16Z</time>
      </trkpt>
      <trkpt lat="44.21855" lon="0.68213">
        <ele>160.19689941406</ele>
        <time>2015-02-12T13:43:22Z</time>
      </trkpt>
      <trkpt lat="44.21851" lon="0.68217">
        <ele>160.19689941406</ele>
        <time>2015-02-12T13:43:27Z</time>
      </trkpt>
      <trkpt lat="44.21839" lon="0.68229">
        <ele>160.67749023438</ele>
        <time>2015-02-12T13:43:41Z</time>
      </trkpt>
      <trkpt lat="44.21831" lon="0.68237">
        <ele>160.67749023438</ele>
        <time>2015-02-12T13:43:51Z</time>
      </trkpt>
      <trkpt lat="44.21828" lon="0.68239">
        <ele>161.158203125</ele>
        <time>2015-02-12T13:43:54Z</time>
      </trkpt>
      <trkpt lat="44.2181" lon="0.68256">
        <ele>162.11950683594</ele>
        <time>2015-02-12T13:44:13Z</time>
      </trkpt>
      <trkpt lat="44.21808" lon="0.68257">
        <ele>162.60009765625</ele>
        <time>2015-02-12T13:44:15Z</time>
      </trkpt>
      <trkpt lat="44.21806" lon="0.6826">
        <ele>162.60009765625</ele>
        <time>2015-02-12T13:44:18Z</time>
      </trkpt>
      <trkpt lat="44.21803" lon="0.68264">
        <ele>163.08081054688</ele>
        <time>2015-02-12T13:44:22Z</time>
      </trkpt>
      <trkpt lat="44.21797" lon="0.68269">
        <ele>162.60009765625</ele>
        <time>2015-02-12T13:44:29Z</time>
      </trkpt>
      <trkpt lat="44.21784" lon="0.68287">
        <ele>163.5615234375</ele>
        <time>2015-02-12T13:44:47Z</time>
      </trkpt>
      <trkpt lat="44.21782" lon="0.68301">
        <ele>163.5615234375</ele>
        <time>2015-02-12T13:44:59Z</time>
      </trkpt>
      <trkpt lat="44.2178" lon="0.68321">
        <ele>163.5615234375</ele>
        <time>2015-02-12T13:45:12Z</time>
      </trkpt>
      <trkpt lat="44.21779" lon="0.68343">
        <ele>163.5615234375</ele>
        <time>2015-02-12T13:45:28Z</time>
      </trkpt>
      <trkpt lat="44.21778" lon="0.68348">
        <ele>164.04211425781</ele>
        <time>2015-02-12T13:45:32Z</time>
      </trkpt>
      <trkpt lat="44.21785" lon="0.68376">
        <ele>163.5615234375</ele>
        <time>2015-02-12T13:45:51Z</time>
      </trkpt>
      <trkpt lat="44.21795" lon="0.68409">
        <ele>159.23547363281</ele>
        <time>2015-02-12T13:46:15Z</time>
      </trkpt>
      <trkpt lat="44.21799" lon="0.68435">
        <ele>155.87097167969</ele>
        <time>2015-02-12T13:46:33Z</time>
      </trkpt>
      <trkpt lat="44.21798" lon="0.68447">
        <ele>156.3515625</ele>
        <time>2015-02-12T13:46:40Z</time>
      </trkpt>
      <trkpt lat="44.21783" lon="0.68466">
        <ele>160.67749023438</ele>
        <time>2015-02-12T13:46:59Z</time>
      </trkpt>
      <trkpt lat="44.2178" lon="0.68467">
        <ele>160.67749023438</ele>
        <time>2015-02-12T13:47:01Z</time>
      </trkpt>
      <trkpt lat="44.21762" lon="0.68466">
        <ele>162.11950683594</ele>
        <time>2015-02-12T13:47:16Z</time>
      </trkpt>
      <trkpt lat="44.21749" lon="0.68465">
        <ele>164.52270507812</ele>
        <time>2015-02-12T13:47:26Z</time>
      </trkpt>
      <trkpt lat="44.21724" lon="0.68476">
        <ele>165.48413085938</ele>
        <time>2015-02-12T13:47:50Z</time>
      </trkpt>
      <trkpt lat="44.21714" lon="0.68486">
        <ele>165.96472167969</ele>
        <time>2015-02-12T13:48:01Z</time>
      </trkpt>
      <trkpt lat="44.217" lon="0.68527">
        <ele>166.4453125</ele>
        <time>2015-02-12T13:48:31Z</time>
      </trkpt>
      <trkpt lat="44.21692" lon="0.68575">
        <ele>167.88732910156</ele>
        <time>2015-02-12T13:49:02Z</time>
      </trkpt>
      <trkpt lat="44.21698" lon="0.68595">
        <ele>165.96472167969</ele>
        <time>2015-02-12T13:49:22Z</time>
      </trkpt>
      <trkpt lat="44.217" lon="0.68612">
        <ele>165.48413085938</ele>
        <time>2015-02-12T13:49:35Z</time>
      </trkpt>
      <trkpt lat="44.21703" lon="0.68618">
        <ele>164.04211425781</ele>
        <time>2015-02-12T13:49:41Z</time>
      </trkpt>
      <trkpt lat="44.21704" lon="0.68623">
        <ele>164.04211425781</ele>
        <time>2015-02-12T13:49:44Z</time>
      </trkpt>
      <trkpt lat="44.21708" lon="0.68633">
        <ele>163.08081054688</ele>
        <time>2015-02-12T13:49:51Z</time>
      </trkpt>
      <trkpt lat="44.21712" lon="0.68643">
        <ele>163.5615234375</ele>
        <time>2015-02-12T13:49:57Z</time>
      </trkpt>
      <trkpt lat="44.2172" lon="0.6867">
        <ele>160.67749023438</ele>
        <time>2015-02-12T13:50:15Z</time>
      </trkpt>
      <trkpt lat="44.21732" lon="0.68693">
        <ele>158.75476074219</ele>
        <time>2015-02-12T13:50:32Z</time>
      </trkpt>
      <trkpt lat="44.21734" lon="0.68696">
        <ele>158.75476074219</ele>
        <time>2015-02-12T13:50:34Z</time>
      </trkpt>
      <trkpt lat="44.21737" lon="0.68702">
        <ele>158.27416992188</ele>
        <time>2015-02-12T13:50:38Z</time>
      </trkpt>
      <trkpt lat="44.21738" lon="0.68724">
        <ele>159.23547363281</ele>
        <time>2015-02-12T13:50:54Z</time>
      </trkpt>
      <trkpt lat="44.21734" lon="0.68752">
        <ele>160.67749023438</ele>
        <time>2015-02-12T13:51:13Z</time>
      </trkpt>
      <trkpt lat="44.21733" lon="0.68767">
        <ele>164.04211425781</ele>
        <time>2015-02-12T13:51:27Z</time>
      </trkpt>
      <trkpt lat="44.21733" lon="0.68792">
        <ele>165.00341796875</ele>
        <time>2015-02-12T13:51:48Z</time>
      </trkpt>
      <trkpt lat="44.21732" lon="0.68797">
        <ele>165.48413085938</ele>
        <time>2015-02-12T13:51:52Z</time>
      </trkpt>
      <trkpt lat="44.2173" lon="0.68819">
        <ele>168.84875488281</ele>
        <time>2015-02-12T13:52:10Z</time>
      </trkpt>
      <trkpt lat="44.21723" lon="0.68833">
        <ele>168.84875488281</ele>
        <time>2015-02-12T13:52:29Z</time>
      </trkpt>
      <trkpt lat="44.21719" lon="0.68837">
        <ele>169.32946777344</ele>
        <time>2015-02-12T13:52:42Z</time>
      </trkpt>
      <trkpt lat="44.21708" lon="0.68839">
        <ele>173.17468261719</ele>
        <time>2015-02-12T13:52:54Z</time>
      </trkpt>
      <trkpt lat="44.21698" lon="0.68854">
        <ele>170.29064941406</ele>
        <time>2015-02-12T13:53:09Z</time>
      </trkpt>
      <trkpt lat="44.21686" lon="0.68856">
        <ele>169.81005859375</ele>
        <time>2015-02-12T13:53:23Z</time>
      </trkpt>
      <trkpt lat="44.2168" lon="0.68857">
        <ele>169.81005859375</ele>
        <time>2015-02-12T13:53:27Z</time>
      </trkpt>
      <trkpt lat="44.21673" lon="0.68859">
        <ele>170.29064941406</ele>
        <time>2015-02-12T13:53:32Z</time>
      </trkpt>
      <trkpt lat="44.21641" lon="0.68869">
        <ele>172.21325683594</ele>
        <time>2015-02-12T13:53:56Z</time>
      </trkpt>
      <trkpt lat="44.21614" lon="0.68878">
        <ele>173.17468261719</ele>
        <time>2015-02-12T13:54:19Z</time>
      </trkpt>
      <trkpt lat="44.21584" lon="0.68886">
        <ele>171.73266601562</ele>
        <time>2015-02-12T13:54:47Z</time>
      </trkpt>
      <trkpt lat="44.21561" lon="0.6889">
        <ele>171.73266601562</ele>
        <time>2015-02-12T13:55:09Z</time>
      </trkpt>
      <trkpt lat="44.21533" lon="0.68891">
        <ele>170.77136230469</ele>
        <time>2015-02-12T13:55:33Z</time>
      </trkpt>
      <trkpt lat="44.21504" lon="0.68894">
        <ele>171.73266601562</ele>
        <time>2015-02-12T13:56:01Z</time>
      </trkpt>
      <trkpt lat="44.21469" lon="0.68887">
        <ele>173.6552734375</ele>
        <time>2015-02-12T13:56:32Z</time>
      </trkpt>
      <trkpt lat="44.2145" lon="0.68887">
        <ele>174.61657714844</ele>
        <time>2015-02-12T13:56:48Z</time>
      </trkpt>
      <trkpt lat="44.21444" lon="0.68896">
        <ele>174.13586425781</ele>
        <time>2015-02-12T13:56:56Z</time>
      </trkpt>
      <trkpt lat="44.21436" lon="0.68909">
        <ele>173.17468261719</ele>
        <time>2015-02-12T13:57:07Z</time>
      </trkpt>
      <trkpt lat="44.21417" lon="0.68932">
        <ele>173.17468261719</ele>
        <time>2015-02-12T13:57:30Z</time>
      </trkpt>
      <trkpt lat="44.21412" lon="0.68935">
        <ele>172.69396972656</ele>
        <time>2015-02-12T13:57:36Z</time>
      </trkpt>
      <trkpt lat="44.21403" lon="0.68935">
        <ele>172.69396972656</ele>
        <time>2015-02-12T13:57:42Z</time>
      </trkpt>
      <trkpt lat="44.21376" lon="0.68937">
        <ele>177.50061035156</ele>
        <time>2015-02-12T13:58:06Z</time>
      </trkpt>
      <trkpt lat="44.21346" lon="0.68947">
        <ele>173.17468261719</ele>
        <time>2015-02-12T13:58:34Z</time>
      </trkpt>
      <trkpt lat="44.21343" lon="0.68949">
        <ele>172.69396972656</ele>
        <time>2015-02-12T13:58:40Z</time>
      </trkpt>
      <trkpt lat="44.2134" lon="0.68949">
        <ele>171.73266601562</ele>
        <time>2015-02-12T13:58:42Z</time>
      </trkpt>
      <trkpt lat="44.21315" lon="0.68952">
        <ele>169.32946777344</ele>
        <time>2015-02-12T13:59:05Z</time>
      </trkpt>
      <trkpt lat="44.2129" lon="0.6896">
        <ele>166.4453125</ele>
        <time>2015-02-12T13:59:27Z</time>
      </trkpt>
      <trkpt lat="44.2126" lon="0.68967">
        <ele>163.08081054688</ele>
        <time>2015-02-12T13:59:56Z</time>
      </trkpt>
      <trkpt lat="44.21237" lon="0.68974">
        <ele>162.60009765625</ele>
        <time>2015-02-12T14:00:18Z</time>
      </trkpt>
      <trkpt lat="44.21235" lon="0.68979">
        <ele>161.63891601562</ele>
        <time>2015-02-12T14:00:38Z</time>
      </trkpt>
      <trkpt lat="44.21233" lon="0.68981">
        <ele>160.67749023438</ele>
        <time>2015-02-12T14:01:21Z</time>
      </trkpt>
      <trkpt lat="44.2123" lon="0.68987">
        <ele>160.67749023438</ele>
        <time>2015-02-12T14:01:39Z</time>
      </trkpt>
      <trkpt lat="44.21232" lon="0.68994">
        <ele>160.19689941406</ele>
        <time>2015-02-12T14:01:45Z</time>
      </trkpt>
      <trkpt lat="44.21241" lon="0.69025">
        <ele>160.19689941406</ele>
        <time>2015-02-12T14:02:05Z</time>
      </trkpt>
      <trkpt lat="44.21249" lon="0.69058">
        <ele>156.83215332031</ele>
        <time>2015-02-12T14:02:25Z</time>
      </trkpt>
      <trkpt lat="44.21254" lon="0.6909">
        <ele>152.50634765625</ele>
        <time>2015-02-12T14:02:46Z</time>
      </trkpt>
      <trkpt lat="44.21262" lon="0.69125">
        <ele>149.62231445312</ele>
        <time>2015-02-12T14:03:08Z</time>
      </trkpt>
      <trkpt lat="44.21272" lon="0.6914">
        <ele>148.18041992188</ele>
        <time>2015-02-12T14:03:21Z</time>
      </trkpt>
      <trkpt lat="44.2129" lon="0.69165">
        <ele>144.81579589844</ele>
        <time>2015-02-12T14:03:42Z</time>
      </trkpt>
      <trkpt lat="44.21291" lon="0.69166">
        <ele>144.33520507812</ele>
        <time>2015-02-12T14:03:43Z</time>
      </trkpt>
      <trkpt lat="44.21315" lon="0.69182">
        <ele>146.73840332031</ele>
        <time>2015-02-12T14:04:04Z</time>
      </trkpt>
      <trkpt lat="44.21333" lon="0.69184">
        <ele>142.89306640625</ele>
        <time>2015-02-12T14:04:21Z</time>
      </trkpt>
      <trkpt lat="44.21351" lon="0.69183">
        <ele>142.41247558594</ele>
        <time>2015-02-12T14:04:37Z</time>
      </trkpt>
      <trkpt lat="44.21369" lon="0.69176">
        <ele>143.37365722656</ele>
        <time>2015-02-12T14:04:53Z</time>
      </trkpt>
      <trkpt lat="44.21383" lon="0.69167">
        <ele>143.37365722656</ele>
        <time>2015-02-12T14:05:06Z</time>
      </trkpt>
      <trkpt lat="44.214" lon="0.69164">
        <ele>146.2578125</ele>
        <time>2015-02-12T14:05:22Z</time>
      </trkpt>
      <trkpt lat="44.21413" lon="0.69168">
        <ele>145.29638671875</ele>
        <time>2015-02-12T14:05:35Z</time>
      </trkpt>
      <trkpt lat="44.21424" lon="0.69174">
        <ele>149.1416015625</ele>
        <time>2015-02-12T14:05:49Z</time>
      </trkpt>
      <trkpt lat="44.21425" lon="0.69175">
        <ele>149.62231445312</ele>
        <time>2015-02-12T14:05:50Z</time>
      </trkpt>
      <trkpt lat="44.21431" lon="0.69179">
        <ele>149.62231445312</ele>
        <time>2015-02-12T14:05:56Z</time>
      </trkpt>
      <trkpt lat="44.21451" lon="0.69181">
        <ele>151.544921875</ele>
        <time>2015-02-12T14:06:12Z</time>
      </trkpt>
      <trkpt lat="44.21459" lon="0.69183">
        <ele>150.10302734375</ele>
        <time>2015-02-12T14:06:20Z</time>
      </trkpt>
      <trkpt lat="44.21472" lon="0.69209">
        <ele>152.50634765625</ele>
        <time>2015-02-12T14:06:43Z</time>
      </trkpt>
      <trkpt lat="44.21482" lon="0.69235">
        <ele>153.46765136719</ele>
        <time>2015-02-12T14:07:04Z</time>
      </trkpt>
      <trkpt lat="44.21495" lon="0.69263">
        <ele>151.06420898438</ele>
        <time>2015-02-12T14:07:29Z</time>
      </trkpt>
      <trkpt lat="44.2151" lon="0.69295">
        <ele>154.42895507812</ele>
        <time>2015-02-12T14:07:52Z</time>
      </trkpt>
      <trkpt lat="44.21519" lon="0.69309">
        <ele>152.98693847656</ele>
        <time>2015-02-12T14:08:05Z</time>
      </trkpt>
      <trkpt lat="44.21527" lon="0.69317">
        <ele>152.02575683594</ele>
        <time>2015-02-12T14:08:13Z</time>
      </trkpt>
      <trkpt lat="44.21529" lon="0.69321">
        <ele>151.544921875</ele>
        <time>2015-02-12T14:08:16Z</time>
      </trkpt>
      <trkpt lat="44.21531" lon="0.69325">
        <ele>151.06420898438</ele>
        <time>2015-02-12T14:08:19Z</time>
      </trkpt>
      <trkpt lat="44.2154" lon="0.6935">
        <ele>148.18041992188</ele>
        <time>2015-02-12T14:08:35Z</time>
      </trkpt>
      <trkpt lat="44.21561" lon="0.69376">
        <ele>143.85437011719</ele>
        <time>2015-02-12T14:09:02Z</time>
      </trkpt>
      <trkpt lat="44.21576" lon="0.69397">
        <ele>141.45104980469</ele>
        <time>2015-02-12T14:09:21Z</time>
      </trkpt>
      <trkpt lat="44.21579" lon="0.694">
        <ele>140.97045898438</ele>
        <time>2015-02-12T14:09:24Z</time>
      </trkpt>
      <trkpt lat="44.21583" lon="0.69407">
        <ele>140.48986816406</ele>
        <time>2015-02-12T14:09:29Z</time>
      </trkpt>
      <trkpt lat="44.21587" lon="0.69411">
        <ele>140.97045898438</ele>
        <time>2015-02-12T14:09:33Z</time>
      </trkpt>
      <trkpt lat="44.21588" lon="0.69413">
        <ele>140.48986816406</ele>
        <time>2015-02-12T14:09:35Z</time>
      </trkpt>
      <trkpt lat="44.21591" lon="0.69419">
        <ele>140.00915527344</ele>
        <time>2015-02-12T14:09:45Z</time>
      </trkpt>
      <trkpt lat="44.21596" lon="0.69426">
        <ele>141.93176269531</ele>
        <time>2015-02-12T14:10:08Z</time>
      </trkpt>
      <trkpt lat="44.21602" lon="0.69454">
        <ele>138.56726074219</ele>
        <time>2015-02-12T14:10:30Z</time>
      </trkpt>
      <trkpt lat="44.21591" lon="0.69485">
        <ele>133.27990722656</ele>
        <time>2015-02-12T14:10:51Z</time>
      </trkpt>
      <trkpt lat="44.21587" lon="0.69492">
        <ele>133.76049804688</ele>
        <time>2015-02-12T14:10:59Z</time>
      </trkpt>
      <trkpt lat="44.21569" lon="0.69506">
        <ele>136.64465332031</ele>
        <time>2015-02-12T14:11:16Z</time>
      </trkpt>
      <trkpt lat="44.21553" lon="0.69517">
        <ele>139.0478515625</ele>
        <time>2015-02-12T14:11:33Z</time>
      </trkpt>
      <trkpt lat="44.21536" lon="0.69526">
        <ele>141.45104980469</ele>
        <time>2015-02-12T14:11:50Z</time>
      </trkpt>
      <trkpt lat="44.21517" lon="0.69533">
        <ele>145.77709960938</ele>
        <time>2015-02-12T14:12:08Z</time>
      </trkpt>
      <trkpt lat="44.21499" lon="0.69538">
        <ele>148.66101074219</ele>
        <time>2015-02-12T14:12:25Z</time>
      </trkpt>
      <trkpt lat="44.21492" lon="0.6954">
        <ele>149.62231445312</ele>
        <time>2015-02-12T14:12:31Z</time>
      </trkpt>
      <trkpt lat="44.21484" lon="0.69544">
        <ele>151.544921875</ele>
        <time>2015-02-12T14:12:39Z</time>
      </trkpt>
      <trkpt lat="44.21469" lon="0.69549">
        <ele>153.46765136719</ele>
        <time>2015-02-12T14:12:53Z</time>
      </trkpt>
      <trkpt lat="44.21467" lon="0.69574">
        <ele>155.39025878906</ele>
        <time>2015-02-12T14:13:12Z</time>
      </trkpt>
      <trkpt lat="44.21466" lon="0.6959">
        <ele>156.83215332031</ele>
        <time>2015-02-12T14:13:25Z</time>
      </trkpt>
      <trkpt lat="44.21462" lon="0.69607">
        <ele>154.42895507812</ele>
        <time>2015-02-12T14:13:39Z</time>
      </trkpt>
      <trkpt lat="44.21457" lon="0.69636">
        <ele>153.46765136719</ele>
        <time>2015-02-12T14:13:58Z</time>
      </trkpt>
      <trkpt lat="44.21452" lon="0.69655">
        <ele>155.39025878906</ele>
        <time>2015-02-12T14:14:16Z</time>
      </trkpt>
      <trkpt lat="44.21448" lon="0.69671">
        <ele>156.83215332031</ele>
        <time>2015-02-12T14:14:31Z</time>
      </trkpt>
      <trkpt lat="44.21443" lon="0.69686">
        <ele>159.23547363281</ele>
        <time>2015-02-12T14:14:47Z</time>
      </trkpt>
      <trkpt lat="44.2144" lon="0.69699">
        <ele>161.63891601562</ele>
        <time>2015-02-12T14:15:00Z</time>
      </trkpt>
      <trkpt lat="44.21434" lon="0.69717">
        <ele>164.04211425781</ele>
        <time>2015-02-12T14:15:15Z</time>
      </trkpt>
      <trkpt lat="44.21429" lon="0.69732">
        <ele>165.48413085938</ele>
        <time>2015-02-12T14:15:28Z</time>
      </trkpt>
      <trkpt lat="44.21418" lon="0.69746">
        <ele>166.92602539062</ele>
        <time>2015-02-12T14:15:41Z</time>
      </trkpt>
      <trkpt lat="44.21404" lon="0.69761">
        <ele>171.25207519531</ele>
        <time>2015-02-12T14:16:01Z</time>
      </trkpt>
      <trkpt lat="44.21388" lon="0.69779">
        <ele>170.77136230469</ele>
        <time>2015-02-12T14:16:19Z</time>
      </trkpt>
      <trkpt lat="44.21376" lon="0.69794">
        <ele>170.77136230469</ele>
        <time>2015-02-12T14:16:36Z</time>
      </trkpt>
      <trkpt lat="44.21365" lon="0.69808">
        <ele>172.21325683594</ele>
        <time>2015-02-12T14:16:50Z</time>
      </trkpt>
      <trkpt lat="44.21353" lon="0.69821">
        <ele>171.25207519531</ele>
        <time>2015-02-12T14:17:04Z</time>
      </trkpt>
      <trkpt lat="44.21351" lon="0.69824">
        <ele>169.81005859375</ele>
        <time>2015-02-12T14:17:07Z</time>
      </trkpt>
      <trkpt lat="44.21345" lon="0.69837">
        <ele>166.4453125</ele>
        <time>2015-02-12T14:17:17Z</time>
      </trkpt>
      <trkpt lat="44.21332" lon="0.69848">
        <ele>165.00341796875</ele>
        <time>2015-02-12T14:17:32Z</time>
      </trkpt>
      <trkpt lat="44.21329" lon="0.69852">
        <ele>165.48413085938</ele>
        <time>2015-02-12T14:17:35Z</time>
      </trkpt>
      <trkpt lat="44.2132" lon="0.69863">
        <ele>164.52270507812</ele>
        <time>2015-02-12T14:17:46Z</time>
      </trkpt>
      <trkpt lat="44.2132" lon="0.69866">
        <ele>164.52270507812</ele>
        <time>2015-02-12T14:17:48Z</time>
      </trkpt>
      <trkpt lat="44.21302" lon="0.69882">
        <ele>161.63891601562</ele>
        <time>2015-02-12T14:18:08Z</time>
      </trkpt>
      <trkpt lat="44.21285" lon="0.69902">
        <ele>160.67749023438</ele>
        <time>2015-02-12T14:18:29Z</time>
      </trkpt>
      <trkpt lat="44.21267" lon="0.69924">
        <ele>158.75476074219</ele>
        <time>2015-02-12T14:18:53Z</time>
      </trkpt>
      <trkpt lat="44.21255" lon="0.69937">
        <ele>157.79357910156</ele>
        <time>2015-02-12T14:19:11Z</time>
      </trkpt>
      <trkpt lat="44.21237" lon="0.69962">
        <ele>155.39025878906</ele>
        <time>2015-02-12T14:19:37Z</time>
      </trkpt>
      <trkpt lat="44.21228" lon="0.69974">
        <ele>154.42895507812</ele>
        <time>2015-02-12T14:19:57Z</time>
      </trkpt>
      <trkpt lat="44.21227" lon="0.69981">
        <ele>153.94836425781</ele>
        <time>2015-02-12T14:20:40Z</time>
      </trkpt>
      <trkpt lat="44.21229" lon="0.69991">
        <ele>153.46765136719</ele>
        <time>2015-02-12T14:20:59Z</time>
      </trkpt>
      <trkpt lat="44.21238" lon="0.7">
        <ele>152.98693847656</ele>
        <time>2015-02-12T14:21:20Z</time>
      </trkpt>
      <trkpt lat="44.21243" lon="0.70006">
        <ele>152.50634765625</ele>
        <time>2015-02-12T14:21:28Z</time>
      </trkpt>
      <trkpt lat="44.21259" lon="0.7003">
        <ele>151.544921875</ele>
        <time>2015-02-12T14:21:50Z</time>
      </trkpt>
      <trkpt lat="44.2127" lon="0.70044">
        <ele>150.58361816406</ele>
        <time>2015-02-12T14:22:08Z</time>
      </trkpt>
      <trkpt lat="44.21287" lon="0.70069">
        <ele>151.544921875</ele>
        <time>2015-02-12T14:22:33Z</time>
      </trkpt>
      <trkpt lat="44.213" lon="0.70089">
        <ele>151.544921875</ele>
        <time>2015-02-12T14:22:51Z</time>
      </trkpt>
      <trkpt lat="44.21314" lon="0.7011">
        <ele>151.544921875</ele>
        <time>2015-02-12T14:23:13Z</time>
      </trkpt>
      <trkpt lat="44.21331" lon="0.70125">
        <ele>152.02575683594</ele>
        <time>2015-02-12T14:23:36Z</time>
      </trkpt>
      <trkpt lat="44.21354" lon="0.70137">
        <ele>152.02575683594</ele>
        <time>2015-02-12T14:24:00Z</time>
      </trkpt>
      <trkpt lat="44.21355" lon="0.70138">
        <ele>152.02575683594</ele>
        <time>2015-02-12T14:24:01Z</time>
      </trkpt>
      <trkpt lat="44.21379" lon="0.70147">
        <ele>153.46765136719</ele>
        <time>2015-02-12T14:24:23Z</time>
      </trkpt>
      <trkpt lat="44.21412" lon="0.70152">
        <ele>153.94836425781</ele>
        <time>2015-02-12T14:24:51Z</time>
      </trkpt>
      <trkpt lat="44.21435" lon="0.70148">
        <ele>155.39025878906</ele>
        <time>2015-02-12T14:25:09Z</time>
      </trkpt>
      <trkpt lat="44.21464" lon="0.70137">
        <ele>157.79357910156</ele>
        <time>2015-02-12T14:25:33Z</time>
      </trkpt>
      <trkpt lat="44.21483" lon="0.70128">
        <ele>159.71618652344</ele>
        <time>2015-02-12T14:25:51Z</time>
      </trkpt>
      <trkpt lat="44.21498" lon="0.70125">
        <ele>156.83215332031</ele>
        <time>2015-02-12T14:26:09Z</time>
      </trkpt>
      <trkpt lat="44.2152" lon="0.70121">
        <ele>155.87097167969</ele>
        <time>2015-02-12T14:26:30Z</time>
      </trkpt>
      <trkpt lat="44.21539" lon="0.70119">
        <ele>154.90954589844</ele>
        <time>2015-02-12T14:26:49Z</time>
      </trkpt>
      <trkpt lat="44.21566" lon="0.70111">
        <ele>155.87097167969</ele>
        <time>2015-02-12T14:27:13Z</time>
      </trkpt>
      <trkpt lat="44.21586" lon="0.70103">
        <ele>156.3515625</ele>
        <time>2015-02-12T14:27:33Z</time>
      </trkpt>
      <trkpt lat="44.21609" lon="0.70087">
        <ele>155.39025878906</ele>
        <time>2015-02-12T14:27:55Z</time>
      </trkpt>
      <trkpt lat="44.21623" lon="0.70079">
        <ele>154.42895507812</ele>
        <time>2015-02-12T14:28:09Z</time>
      </trkpt>
      <trkpt lat="44.21637" lon="0.70072">
        <ele>155.39025878906</ele>
        <time>2015-02-12T14:28:23Z</time>
      </trkpt>
      <trkpt lat="44.21655" lon="0.70065">
        <ele>154.42895507812</ele>
        <time>2015-02-12T14:28:41Z</time>
      </trkpt>
      <trkpt lat="44.21671" lon="0.70058">
        <ele>152.02575683594</ele>
        <time>2015-02-12T14:28:56Z</time>
      </trkpt>
      <trkpt lat="44.21684" lon="0.70044">
        <ele>149.1416015625</ele>
        <time>2015-02-12T14:29:14Z</time>
      </trkpt>
      <trkpt lat="44.21692" lon="0.70038">
        <ele>150.10302734375</ele>
        <time>2015-02-12T14:29:21Z</time>
      </trkpt>
      <trkpt lat="44.21708" lon="0.70028">
        <ele>149.62231445312</ele>
        <time>2015-02-12T14:29:33Z</time>
      </trkpt>
      <trkpt lat="44.21722" lon="0.70028">
        <ele>149.62231445312</ele>
        <time>2015-02-12T14:29:49Z</time>
      </trkpt>
      <trkpt lat="44.21723" lon="0.70032">
        <ele>148.66101074219</ele>
        <time>2015-02-12T14:29:57Z</time>
      </trkpt>
      <trkpt lat="44.21733" lon="0.70048">
        <ele>149.1416015625</ele>
        <time>2015-02-12T14:30:13Z</time>
      </trkpt>
      <trkpt lat="44.21735" lon="0.70057">
        <ele>152.02575683594</ele>
        <time>2015-02-12T14:30:21Z</time>
      </trkpt>
      <trkpt lat="44.2174" lon="0.70072">
        <ele>151.06420898438</ele>
        <time>2015-02-12T14:30:30Z</time>
      </trkpt>
      <trkpt lat="44.21743" lon="0.70077">
        <ele>150.58361816406</ele>
        <time>2015-02-12T14:30:34Z</time>
      </trkpt>
      <trkpt lat="44.21753" lon="0.70084">
        <ele>148.18041992188</ele>
        <time>2015-02-12T14:30:48Z</time>
      </trkpt>
      <trkpt lat="44.21769" lon="0.7008">
        <ele>148.66101074219</ele>
        <time>2015-02-12T14:31:02Z</time>
      </trkpt>
      <trkpt lat="44.21781" lon="0.70078">
        <ele>149.62231445312</ele>
        <time>2015-02-12T14:31:12Z</time>
      </trkpt>
      <trkpt lat="44.21784" lon="0.70077">
        <ele>149.1416015625</ele>
        <time>2015-02-12T14:31:15Z</time>
      </trkpt>
      <trkpt lat="44.21788" lon="0.70082">
        <ele>150.10302734375</ele>
        <time>2015-02-12T14:31:26Z</time>
      </trkpt>
      <trkpt lat="44.21789" lon="0.70085">
        <ele>149.62231445312</ele>
        <time>2015-02-12T14:31:29Z</time>
      </trkpt>
      <trkpt lat="44.21795" lon="0.70102">
        <ele>143.85437011719</ele>
        <time>2015-02-12T14:31:45Z</time>
      </trkpt>
      <trkpt lat="44.218" lon="0.7013">
        <ele>138.56726074219</ele>
        <time>2015-02-12T14:32:06Z</time>
      </trkpt>
      <trkpt lat="44.21798" lon="0.70152">
        <ele>135.20251464844</ele>
        <time>2015-02-12T14:32:27Z</time>
      </trkpt>
      <trkpt lat="44.21795" lon="0.70166">
        <ele>133.76049804688</ele>
        <time>2015-02-12T14:32:44Z</time>
      </trkpt>
      <trkpt lat="44.21793" lon="0.70181">
        <ele>132.79931640625</ele>
        <time>2015-02-12T14:33:01Z</time>
      </trkpt>
      <trkpt lat="44.21791" lon="0.70207">
        <ele>129.91528320312</ele>
        <time>2015-02-12T14:33:23Z</time>
      </trkpt>
      <trkpt lat="44.21791" lon="0.70214">
        <ele>128.47338867188</ele>
        <time>2015-02-12T14:33:28Z</time>
      </trkpt>
      <trkpt lat="44.21789" lon="0.70228">
        <ele>126.06994628906</ele>
        <time>2015-02-12T14:33:46Z</time>
      </trkpt>
      <trkpt lat="44.21791" lon="0.7024">
        <ele>126.06994628906</ele>
        <time>2015-02-12T14:34:09Z</time>
      </trkpt>
      <trkpt lat="44.2179" lon="0.70269">
        <ele>121.744140625</ele>
        <time>2015-02-12T14:34:33Z</time>
      </trkpt>
      <trkpt lat="44.2179" lon="0.70309">
        <ele>120.30212402344</ele>
        <time>2015-02-12T14:35:02Z</time>
      </trkpt>
      <trkpt lat="44.21789" lon="0.70339">
        <ele>117.41821289062</ele>
        <time>2015-02-12T14:35:21Z</time>
      </trkpt>
      <trkpt lat="44.21789" lon="0.70383">
        <ele>115.01489257812</ele>
        <time>2015-02-12T14:35:47Z</time>
      </trkpt>
      <trkpt lat="44.21791" lon="0.70421">
        <ele>112.13098144531</ele>
        <time>2015-02-12T14:36:11Z</time>
      </trkpt>
      <trkpt lat="44.21796" lon="0.70465">
        <ele>110.20825195312</ele>
        <time>2015-02-12T14:36:38Z</time>
      </trkpt>
      <trkpt lat="44.21801" lon="0.705">
        <ele>105.40173339844</ele>
        <time>2015-02-12T14:37:03Z</time>
      </trkpt>
      <trkpt lat="44.21806" lon="0.70536">
        <ele>102.037109375</ele>
        <time>2015-02-12T14:37:29Z</time>
      </trkpt>
      <trkpt lat="44.2181" lon="0.70544">
        <ele>102.51770019531</ele>
        <time>2015-02-12T14:37:38Z</time>
      </trkpt>
      <trkpt lat="44.21816" lon="0.70567">
        <ele>99.6337890625</ele>
        <time>2015-02-12T14:37:54Z</time>
      </trkpt>
      <trkpt lat="44.21829" lon="0.70626">
        <ele>92.423950195312</ele>
        <time>2015-02-12T14:38:31Z</time>
      </trkpt>
      <trkpt lat="44.21831" lon="0.70663">
        <ele>91.462524414062</ele>
        <time>2015-02-12T14:38:53Z</time>
      </trkpt>
      <trkpt lat="44.21829" lon="0.70694">
        <ele>92.423950195312</ele>
        <time>2015-02-12T14:39:13Z</time>
      </trkpt>
      <trkpt lat="44.21832" lon="0.70738">
        <ele>90.020629882812</ele>
        <time>2015-02-12T14:39:39Z</time>
      </trkpt>
      <trkpt lat="44.2183" lon="0.70765">
        <ele>94.8271484375</ele>
        <time>2015-02-12T14:40:00Z</time>
      </trkpt>
      <trkpt lat="44.21832" lon="0.70765">
        <ele>95.788452148438</ele>
        <time>2015-02-12T14:40:32Z</time>
      </trkpt>
      <trkpt lat="44.21834" lon="0.70758">
        <ele>96.749877929688</ele>
        <time>2015-02-12T14:40:56Z</time>
      </trkpt>
      <trkpt lat="44.21837" lon="0.70757">
        <ele>95.307739257812</ele>
        <time>2015-02-12T14:41:31Z</time>
      </trkpt>
      <trkpt lat="44.21839" lon="0.70758">
        <ele>95.307739257812</ele>
        <time>2015-02-12T14:41:34Z</time>
      </trkpt>
      <trkpt lat="44.21841" lon="0.70757">
        <ele>94.346557617188</ele>
        <time>2015-02-12T14:41:38Z</time>
      </trkpt>
      <trkpt lat="44.21854" lon="0.70757">
        <ele>91.943237304688</ele>
        <time>2015-02-12T14:41:52Z</time>
      </trkpt>
      <trkpt lat="44.21871" lon="0.70754">
        <ele>90.98193359375</ele>
        <time>2015-02-12T14:42:10Z</time>
      </trkpt>
      <trkpt lat="44.21891" lon="0.7075">
        <ele>91.943237304688</ele>
        <time>2015-02-12T14:42:27Z</time>
      </trkpt>
      <trkpt lat="44.21909" lon="0.70748">
        <ele>92.904541015625</ele>
        <time>2015-02-12T14:42:43Z</time>
      </trkpt>
      <trkpt lat="44.21912" lon="0.70748">
        <ele>91.462524414062</ele>
        <time>2015-02-12T14:42:46Z</time>
      </trkpt>
      <trkpt lat="44.21927" lon="0.70745">
        <ele>89.059326171875</ele>
        <time>2015-02-12T14:43:00Z</time>
      </trkpt>
      <trkpt lat="44.21945" lon="0.70742">
        <ele>92.904541015625</ele>
        <time>2015-02-12T14:43:14Z</time>
      </trkpt>
      <trkpt lat="44.21962" lon="0.70743">
        <ele>98.19189453125</ele>
        <time>2015-02-12T14:43:29Z</time>
      </trkpt>
      <trkpt lat="44.21977" lon="0.70738">
        <ele>97.23046875</ele>
        <time>2015-02-12T14:43:44Z</time>
      </trkpt>
      <trkpt lat="44.2199" lon="0.70736">
        <ele>99.153076171875</ele>
        <time>2015-02-12T14:43:55Z</time>
      </trkpt>
      <trkpt lat="44.22007" lon="0.7073">
        <ele>93.865844726562</ele>
        <time>2015-02-12T14:44:12Z</time>
      </trkpt>
      <trkpt lat="44.22022" lon="0.70729">
        <ele>93.865844726562</ele>
        <time>2015-02-12T14:44:27Z</time>
      </trkpt>
      <trkpt lat="44.2204" lon="0.70736">
        <ele>94.8271484375</ele>
        <time>2015-02-12T14:44:42Z</time>
      </trkpt>
      <trkpt lat="44.22054" lon="0.70745">
        <ele>96.749877929688</ele>
        <time>2015-02-12T14:44:56Z</time>
      </trkpt>
      <trkpt lat="44.22062" lon="0.70747">
        <ele>97.23046875</ele>
        <time>2015-02-12T14:45:02Z</time>
      </trkpt>
      <trkpt lat="44.22068" lon="0.70752">
        <ele>97.711181640625</ele>
        <time>2015-02-12T14:45:08Z</time>
      </trkpt>
      <trkpt lat="44.2208" lon="0.70762">
        <ele>94.8271484375</ele>
        <time>2015-02-12T14:45:26Z</time>
      </trkpt>
      <trkpt lat="44.2209" lon="0.70774">
        <ele>91.943237304688</ele>
        <time>2015-02-12T14:45:45Z</time>
      </trkpt>
      <trkpt lat="44.22098" lon="0.7078">
        <ele>93.385131835938</ele>
        <time>2015-02-12T14:45:53Z</time>
      </trkpt>
      <trkpt lat="44.2212" lon="0.70795">
        <ele>90.020629882812</ele>
        <time>2015-02-12T14:46:14Z</time>
      </trkpt>
      <trkpt lat="44.22144" lon="0.70808">
        <ele>90.98193359375</ele>
        <time>2015-02-12T14:46:37Z</time>
      </trkpt>
      <trkpt lat="44.22164" lon="0.70818">
        <ele>90.020629882812</ele>
        <time>2015-02-12T14:46:56Z</time>
      </trkpt>
      <trkpt lat="44.22172" lon="0.70819">
        <ele>89.059326171875</ele>
        <time>2015-02-12T14:47:04Z</time>
      </trkpt>
      <trkpt lat="44.22197" lon="0.70818">
        <ele>88.098022460938</ele>
        <time>2015-02-12T14:47:29Z</time>
      </trkpt>
      <trkpt lat="44.22229" lon="0.70816">
        <ele>88.098022460938</ele>
        <time>2015-02-12T14:47:57Z</time>
      </trkpt>
      <trkpt lat="44.22258" lon="0.70815">
        <ele>87.6171875</ele>
        <time>2015-02-12T14:48:23Z</time>
      </trkpt>
      <trkpt lat="44.22288" lon="0.70812">
        <ele>87.6171875</ele>
        <time>2015-02-12T14:48:49Z</time>
      </trkpt>
      <trkpt lat="44.22298" lon="0.70812">
        <ele>88.578735351562</ele>
        <time>2015-02-12T14:48:58Z</time>
      </trkpt>
      <trkpt lat="44.22319" lon="0.70803">
        <ele>88.098022460938</ele>
        <time>2015-02-12T14:49:19Z</time>
      </trkpt>
      <trkpt lat="44.22325" lon="0.70797">
        <ele>87.6171875</ele>
        <time>2015-02-12T14:49:25Z</time>
      </trkpt>
      <trkpt lat="44.22326" lon="0.70793">
        <ele>87.136596679688</ele>
        <time>2015-02-12T14:49:28Z</time>
      </trkpt>
      <trkpt lat="44.22332" lon="0.70781">
        <ele>88.578735351562</ele>
        <time>2015-02-12T14:49:43Z</time>
      </trkpt>
      <trkpt lat="44.22332" lon="0.70777">
        <ele>89.539916992188</ele>
        <time>2015-02-12T14:49:47Z</time>
      </trkpt>
      <trkpt lat="44.22327" lon="0.70767">
        <ele>89.059326171875</ele>
        <time>2015-02-12T14:49:56Z</time>
      </trkpt>
      <trkpt lat="44.22313" lon="0.70755">
        <ele>93.865844726562</ele>
        <time>2015-02-12T14:50:10Z</time>
      </trkpt>
      <trkpt lat="44.22307" lon="0.70748">
        <ele>96.749877929688</ele>
        <time>2015-02-12T14:50:19Z</time>
      </trkpt>
      <trkpt lat="44.22298" lon="0.70726">
        <ele>96.749877929688</ele>
        <time>2015-02-12T14:50:37Z</time>
      </trkpt>
      <trkpt lat="44.22294" lon="0.70712">
        <ele>97.23046875</ele>
        <time>2015-02-12T14:50:49Z</time>
      </trkpt>
      <trkpt lat="44.22292" lon="0.70705">
        <ele>97.23046875</ele>
        <time>2015-02-12T14:50:56Z</time>
      </trkpt>
      <trkpt lat="44.22289" lon="0.70695">
        <ele>97.23046875</ele>
        <time>2015-02-12T14:51:09Z</time>
      </trkpt>
      <trkpt lat="44.22282" lon="0.70675">
        <ele>97.711181640625</ele>
        <time>2015-02-12T14:51:29Z</time>
      </trkpt>
      <trkpt lat="44.22284" lon="0.70665">
        <ele>98.19189453125</ele>
        <time>2015-02-12T14:51:47Z</time>
      </trkpt>
      <trkpt lat="44.22282" lon="0.70646">
        <ele>98.19189453125</ele>
        <time>2015-02-12T14:52:05Z</time>
      </trkpt>
      <trkpt lat="44.22283" lon="0.70635">
        <ele>99.6337890625</ele>
        <time>2015-02-12T14:52:18Z</time>
      </trkpt>
      <trkpt lat="44.22283" lon="0.70634">
        <ele>101.07568359375</ele>
        <time>2015-02-12T14:52:20Z</time>
      </trkpt>
      <trkpt lat="44.22288" lon="0.7062">
        <ele>100.11450195312</ele>
        <time>2015-02-12T14:52:37Z</time>
      </trkpt>
      <trkpt lat="44.22304" lon="0.70603">
        <ele>102.51770019531</ele>
        <time>2015-02-12T14:52:58Z</time>
      </trkpt>
      <trkpt lat="44.22308" lon="0.70591">
        <ele>103.95971679688</ele>
        <time>2015-02-12T14:53:22Z</time>
      </trkpt>
      <trkpt lat="44.22319" lon="0.70573">
        <ele>104.4404296875</ele>
        <time>2015-02-12T14:53:44Z</time>
      </trkpt>
      <trkpt lat="44.22334" lon="0.70562">
        <ele>108.28564453125</ele>
        <time>2015-02-12T14:54:06Z</time>
      </trkpt>
      <trkpt lat="44.22347" lon="0.70547">
        <ele>110.20825195312</ele>
        <time>2015-02-12T14:54:29Z</time>
      </trkpt>
      <trkpt lat="44.22359" lon="0.70539">
        <ele>113.57299804688</ele>
        <time>2015-02-12T14:54:49Z</time>
      </trkpt>
      <trkpt lat="44.22361" lon="0.70534">
        <ele>116.45678710938</ele>
        <time>2015-02-12T14:55:04Z</time>
      </trkpt>
      <trkpt lat="44.22364" lon="0.70527">
        <ele>115.97619628906</ele>
        <time>2015-02-12T14:55:23Z</time>
      </trkpt>
      <trkpt lat="44.22368" lon="0.70519">
        <ele>117.41821289062</ele>
        <time>2015-02-12T14:55:44Z</time>
      </trkpt>
      <trkpt lat="44.22381" lon="0.70504">
        <ele>120.78283691406</ele>
        <time>2015-02-12T14:56:04Z</time>
      </trkpt>
      <trkpt lat="44.2239" lon="0.70493">
        <ele>124.62805175781</ele>
        <time>2015-02-12T14:56:23Z</time>
      </trkpt>
      <trkpt lat="44.22395" lon="0.7048">
        <ele>126.06994628906</ele>
        <time>2015-02-12T14:56:39Z</time>
      </trkpt>
      <trkpt lat="44.22402" lon="0.70468">
        <ele>127.03137207031</ele>
        <time>2015-02-12T14:56:53Z</time>
      </trkpt>
      <trkpt lat="44.22419" lon="0.70458">
        <ele>128.47338867188</ele>
        <time>2015-02-12T14:57:13Z</time>
      </trkpt>
      <trkpt lat="44.22427" lon="0.70465">
        <ele>132.79931640625</ele>
        <time>2015-02-12T14:57:33Z</time>
      </trkpt>
      <trkpt lat="44.22435" lon="0.70465">
        <ele>135.20251464844</ele>
        <time>2015-02-12T14:57:56Z</time>
      </trkpt>
      <trkpt lat="44.22443" lon="0.70462">
        <ele>136.64465332031</ele>
        <time>2015-02-12T14:58:12Z</time>
      </trkpt>
      <trkpt lat="44.2246" lon="0.70453">
        <ele>140.00915527344</ele>
        <time>2015-02-12T14:58:32Z</time>
      </trkpt>
      <trkpt lat="44.22459" lon="0.70454">
        <ele>140.48986816406</ele>
        <time>2015-02-12T14:59:18Z</time>
      </trkpt>
      <trkpt lat="44.22471" lon="0.70449">
        <ele>142.41247558594</ele>
        <time>2015-02-12T14:59:58Z</time>
      </trkpt>
      <trkpt lat="44.22484" lon="0.70445">
        <ele>145.29638671875</ele>
        <time>2015-02-12T15:00:19Z</time>
      </trkpt>
      <trkpt lat="44.22488" lon="0.70443">
        <ele>146.2578125</ele>
        <time>2015-02-12T15:00:31Z</time>
      </trkpt>
      <trkpt lat="44.225" lon="0.70437">
        <ele>148.18041992188</ele>
        <time>2015-02-12T15:00:45Z</time>
      </trkpt>
      <trkpt lat="44.22513" lon="0.70427">
        <ele>148.66101074219</ele>
        <time>2015-02-12T15:01:04Z</time>
      </trkpt>
      <trkpt lat="44.22519" lon="0.70402">
        <ele>149.62231445312</ele>
        <time>2015-02-12T15:01:26Z</time>
      </trkpt>
      <trkpt lat="44.22519" lon="0.7039">
        <ele>151.06420898438</ele>
        <time>2015-02-12T15:01:46Z</time>
      </trkpt>
      <trkpt lat="44.22521" lon="0.70388">
        <ele>152.50634765625</ele>
        <time>2015-02-12T15:02:47Z</time>
      </trkpt>
      <trkpt lat="44.22521" lon="0.70385">
        <ele>152.02575683594</ele>
        <time>2015-02-12T15:03:05Z</time>
      </trkpt>
      <trkpt lat="44.22523" lon="0.70366">
        <ele>152.50634765625</ele>
        <time>2015-02-12T15:03:27Z</time>
      </trkpt>
      <trkpt lat="44.22523" lon="0.70364">
        <ele>152.50634765625</ele>
        <time>2015-02-12T15:03:29Z</time>
      </trkpt>
      <trkpt lat="44.22524" lon="0.70337">
        <ele>152.02575683594</ele>
        <time>2015-02-12T15:03:48Z</time>
      </trkpt>
      <trkpt lat="44.22524" lon="0.7033">
        <ele>151.544921875</ele>
        <time>2015-02-12T15:03:52Z</time>
      </trkpt>
      <trkpt lat="44.22532" lon="0.70303">
        <ele>149.1416015625</ele>
        <time>2015-02-12T15:04:14Z</time>
      </trkpt>
      <trkpt lat="44.22535" lon="0.703">
        <ele>149.1416015625</ele>
        <time>2015-02-12T15:04:18Z</time>
      </trkpt>
      <trkpt lat="44.22549" lon="0.70288">
        <ele>150.10302734375</ele>
        <time>2015-02-12T15:04:31Z</time>
      </trkpt>
      <trkpt lat="44.22555" lon="0.70277">
        <ele>150.10302734375</ele>
        <time>2015-02-12T15:04:40Z</time>
      </trkpt>
      <trkpt lat="44.22564" lon="0.70258">
        <ele>149.62231445312</ele>
        <time>2015-02-12T15:05:00Z</time>
      </trkpt>
      <trkpt lat="44.22565" lon="0.70257">
        <ele>150.10302734375</ele>
        <time>2015-02-12T15:05:07Z</time>
      </trkpt>
      <trkpt lat="44.22567" lon="0.70254">
        <ele>150.10302734375</ele>
        <time>2015-02-12T15:05:10Z</time>
      </trkpt>
      <trkpt lat="44.22565" lon="0.7024">
        <ele>150.58361816406</ele>
        <time>2015-02-12T15:05:20Z</time>
      </trkpt>
      <trkpt lat="44.22552" lon="0.70208">
        <ele>150.58361816406</ele>
        <time>2015-02-12T15:05:41Z</time>
      </trkpt>
      <trkpt lat="44.22545" lon="0.70183">
        <ele>152.50634765625</ele>
        <time>2015-02-12T15:05:57Z</time>
      </trkpt>
      <trkpt lat="44.22534" lon="0.70153">
        <ele>157.31286621094</ele>
        <time>2015-02-12T15:06:19Z</time>
      </trkpt>
      <trkpt lat="44.22523" lon="0.70126">
        <ele>160.19689941406</ele>
        <time>2015-02-12T15:06:40Z</time>
      </trkpt>
      <trkpt lat="44.22511" lon="0.701">
        <ele>164.04211425781</ele>
        <time>2015-02-12T15:06:57Z</time>
      </trkpt>
      <trkpt lat="44.22501" lon="0.70076">
        <ele>167.40673828125</ele>
        <time>2015-02-12T15:07:16Z</time>
      </trkpt>
      <trkpt lat="44.22487" lon="0.70039">
        <ele>171.73266601562</ele>
        <time>2015-02-12T15:07:40Z</time>
      </trkpt>
      <trkpt lat="44.22474" lon="0.70003">
        <ele>171.25207519531</ele>
        <time>2015-02-12T15:08:06Z</time>
      </trkpt>
      <trkpt lat="44.22462" lon="0.69971">
        <ele>167.40673828125</ele>
        <time>2015-02-12T15:08:30Z</time>
      </trkpt>
      <trkpt lat="44.22457" lon="0.6996">
        <ele>166.4453125</ele>
        <time>2015-02-12T15:08:39Z</time>
      </trkpt>
      <trkpt lat="44.22446" lon="0.69935">
        <ele>166.4453125</ele>
        <time>2015-02-12T15:08:59Z</time>
      </trkpt>
      <trkpt lat="44.22447" lon="0.69924">
        <ele>162.60009765625</ele>
        <time>2015-02-12T15:09:18Z</time>
      </trkpt>
      <trkpt lat="44.22449" lon="0.69922">
        <ele>162.11950683594</ele>
        <time>2015-02-12T15:09:20Z</time>
      </trkpt>
      <trkpt lat="44.22462" lon="0.69899">
        <ele>159.23547363281</ele>
        <time>2015-02-12T15:09:41Z</time>
      </trkpt>
      <trkpt lat="44.22479" lon="0.69874">
        <ele>157.79357910156</ele>
        <time>2015-02-12T15:10:02Z</time>
      </trkpt>
      <trkpt lat="44.22496" lon="0.6986">
        <ele>155.87097167969</ele>
        <time>2015-02-12T15:10:19Z</time>
      </trkpt>
      <trkpt lat="44.22508" lon="0.6985">
        <ele>153.94836425781</ele>
        <time>2015-02-12T15:10:34Z</time>
      </trkpt>
      <trkpt lat="44.22524" lon="0.69841">
        <ele>152.50634765625</ele>
        <time>2015-02-12T15:10:51Z</time>
      </trkpt>
      <trkpt lat="44.22541" lon="0.6983">
        <ele>150.10302734375</ele>
        <time>2015-02-12T15:11:08Z</time>
      </trkpt>
      <trkpt lat="44.22555" lon="0.69816">
        <ele>151.544921875</ele>
        <time>2015-02-12T15:11:23Z</time>
      </trkpt>
      <trkpt lat="44.22571" lon="0.69797">
        <ele>154.90954589844</ele>
        <time>2015-02-12T15:11:42Z</time>
      </trkpt>
      <trkpt lat="44.22579" lon="0.69787">
        <ele>156.3515625</ele>
        <time>2015-02-12T15:11:56Z</time>
      </trkpt>
      <trkpt lat="44.22582" lon="0.69773">
        <ele>157.79357910156</ele>
        <time>2015-02-12T15:12:17Z</time>
      </trkpt>
      <trkpt lat="44.22583" lon="0.6977">
        <ele>159.23547363281</ele>
        <time>2015-02-12T15:12:36Z</time>
      </trkpt>
      <trkpt lat="44.22583" lon="0.69763">
        <ele>158.75476074219</ele>
        <time>2015-02-12T15:13:07Z</time>
      </trkpt>
      <trkpt lat="44.22591" lon="0.69747">
        <ele>156.83215332031</ele>
        <time>2015-02-12T15:13:23Z</time>
      </trkpt>
      <trkpt lat="44.22599" lon="0.69734">
        <ele>156.3515625</ele>
        <time>2015-02-12T15:13:37Z</time>
      </trkpt>
      <trkpt lat="44.2261" lon="0.69698">
        <ele>159.23547363281</ele>
        <time>2015-02-12T15:13:59Z</time>
      </trkpt>
      <trkpt lat="44.22627" lon="0.69668">
        <ele>160.19689941406</ele>
        <time>2015-02-12T15:14:27Z</time>
      </trkpt>
      <trkpt lat="44.22641" lon="0.69649">
        <ele>158.75476074219</ele>
        <time>2015-02-12T15:14:47Z</time>
      </trkpt>
      <trkpt lat="44.22642" lon="0.69648">
        <ele>158.75476074219</ele>
        <time>2015-02-12T15:14:48Z</time>
      </trkpt>
      <trkpt lat="44.22646" lon="0.69644">
        <ele>158.75476074219</ele>
        <time>2015-02-12T15:14:52Z</time>
      </trkpt>
      <trkpt lat="44.22648" lon="0.69643">
        <ele>158.75476074219</ele>
        <time>2015-02-12T15:14:54Z</time>
      </trkpt>
      <trkpt lat="44.22661" lon="0.69636">
        <ele>158.75476074219</ele>
        <time>2015-02-12T15:15:08Z</time>
      </trkpt>
      <trkpt lat="44.22663" lon="0.69634">
        <ele>158.75476074219</ele>
        <time>2015-02-12T15:15:11Z</time>
      </trkpt>
      <trkpt lat="44.22671" lon="0.69625">
        <ele>157.79357910156</ele>
        <time>2015-02-12T15:15:21Z</time>
      </trkpt>
      <trkpt lat="44.22675" lon="0.69619">
        <ele>157.79357910156</ele>
        <time>2015-02-12T15:15:26Z</time>
      </trkpt>
      <trkpt lat="44.22681" lon="0.69613">
        <ele>157.31286621094</ele>
        <time>2015-02-12T15:15:33Z</time>
      </trkpt>
      <trkpt lat="44.22699" lon="0.69588">
        <ele>157.31286621094</ele>
        <time>2015-02-12T15:15:57Z</time>
      </trkpt>
      <trkpt lat="44.22707" lon="0.69574">
        <ele>155.87097167969</ele>
        <time>2015-02-12T15:16:10Z</time>
      </trkpt>
      <trkpt lat="44.22723" lon="0.69555">
        <ele>154.90954589844</ele>
        <time>2015-02-12T15:16:30Z</time>
      </trkpt>
      <trkpt lat="44.22729" lon="0.69543">
        <ele>154.42895507812</ele>
        <time>2015-02-12T15:16:40Z</time>
      </trkpt>
      <trkpt lat="44.22732" lon="0.69531">
        <ele>153.46765136719</ele>
        <time>2015-02-12T15:16:50Z</time>
      </trkpt>
      <trkpt lat="44.22732" lon="0.69519">
        <ele>152.98693847656</ele>
        <time>2015-02-12T15:17:00Z</time>
      </trkpt>
      <trkpt lat="44.22735" lon="0.69493">
        <ele>150.10302734375</ele>
        <time>2015-02-12T15:17:22Z</time>
      </trkpt>
      <trkpt lat="44.22748" lon="0.69485">
        <ele>147.21899414062</ele>
        <time>2015-02-12T15:17:41Z</time>
      </trkpt>
      <trkpt lat="44.22752" lon="0.69479">
        <ele>146.2578125</ele>
        <time>2015-02-12T15:17:59Z</time>
      </trkpt>
      <trkpt lat="44.22754" lon="0.69475">
        <ele>145.77709960938</ele>
        <time>2015-02-12T15:18:17Z</time>
      </trkpt>
      <trkpt lat="44.2275" lon="0.6947">
        <ele>146.73840332031</ele>
        <time>2015-02-12T15:18:40Z</time>
      </trkpt>
      <trkpt lat="44.2275" lon="0.6946">
        <ele>144.33520507812</ele>
        <time>2015-02-12T15:18:58Z</time>
      </trkpt>
      <trkpt lat="44.22757" lon="0.69431">
        <ele>141.93176269531</ele>
        <time>2015-02-12T15:19:22Z</time>
      </trkpt>
      <trkpt lat="44.22764" lon="0.69418">
        <ele>142.89306640625</ele>
        <time>2015-02-12T15:19:40Z</time>
      </trkpt>
      <trkpt lat="44.2277" lon="0.69412">
        <ele>140.48986816406</ele>
        <time>2015-02-12T15:19:46Z</time>
      </trkpt>
      <trkpt lat="44.22774" lon="0.69407">
        <ele>139.52844238281</ele>
        <time>2015-02-12T15:19:53Z</time>
      </trkpt>
      <trkpt lat="44.22784" lon="0.69395">
        <ele>139.0478515625</ele>
        <time>2015-02-12T15:20:09Z</time>
      </trkpt>
      <trkpt lat="44.228" lon="0.69381">
        <ele>140.00915527344</ele>
        <time>2015-02-12T15:20:26Z</time>
      </trkpt>
      <trkpt lat="44.228" lon="0.69363">
        <ele>139.52844238281</ele>
        <time>2015-02-12T15:20:46Z</time>
      </trkpt>
      <trkpt lat="44.22788" lon="0.69363">
        <ele>138.08654785156</ele>
        <time>2015-02-12T15:21:00Z</time>
      </trkpt>
      <trkpt lat="44.22785" lon="0.69354">
        <ele>134.2412109375</ele>
        <time>2015-02-12T15:21:18Z</time>
      </trkpt>
      <trkpt lat="44.22785" lon="0.69349">
        <ele>133.27990722656</ele>
        <time>2015-02-12T15:21:30Z</time>
      </trkpt>
      <trkpt lat="44.22788" lon="0.69346">
        <ele>132.31860351562</ele>
        <time>2015-02-12T15:21:34Z</time>
      </trkpt>
      <trkpt lat="44.2281" lon="0.69335">
        <ele>127.51196289062</ele>
        <time>2015-02-12T15:21:54Z</time>
      </trkpt>
      <trkpt lat="44.22826" lon="0.69324">
        <ele>126.55065917969</ele>
        <time>2015-02-12T15:22:11Z</time>
      </trkpt>
      <trkpt lat="44.22827" lon="0.69323">
        <ele>126.55065917969</ele>
        <time>2015-02-12T15:22:13Z</time>
      </trkpt>
      <trkpt lat="44.22845" lon="0.69318">
        <ele>126.55065917969</ele>
        <time>2015-02-12T15:22:26Z</time>
      </trkpt>
      <trkpt lat="44.22861" lon="0.69315">
        <ele>127.51196289062</ele>
        <time>2015-02-12T15:22:39Z</time>
      </trkpt>
      <trkpt lat="44.22881" lon="0.69315">
        <ele>129.91528320312</ele>
        <time>2015-02-12T15:22:56Z</time>
      </trkpt>
      <trkpt lat="44.22898" lon="0.69317">
        <ele>130.87670898438</ele>
        <time>2015-02-12T15:23:06Z</time>
      </trkpt>
      <trkpt lat="44.22911" lon="0.69315">
        <ele>129.43469238281</ele>
        <time>2015-02-12T15:23:24Z</time>
      </trkpt>
      <trkpt lat="44.22936" lon="0.69313">
        <ele>126.55065917969</ele>
        <time>2015-02-12T15:23:44Z</time>
      </trkpt>
      <trkpt lat="44.2295" lon="0.69307">
        <ele>126.55065917969</ele>
        <time>2015-02-12T15:23:58Z</time>
      </trkpt>
      <trkpt lat="44.2297" lon="0.69302">
        <ele>124.14733886719</ele>
        <time>2015-02-12T15:24:13Z</time>
      </trkpt>
      <trkpt lat="44.22978" lon="0.69301">
        <ele>123.18615722656</ele>
        <time>2015-02-12T15:24:20Z</time>
      </trkpt>
      <trkpt lat="44.2299" lon="0.69299">
        <ele>123.66674804688</ele>
        <time>2015-02-12T15:24:32Z</time>
      </trkpt>
      <trkpt lat="44.23003" lon="0.69302">
        <ele>122.70544433594</ele>
        <time>2015-02-12T15:24:39Z</time>
      </trkpt>
      <trkpt lat="44.23017" lon="0.69299">
        <ele>122.22473144531</ele>
        <time>2015-02-12T15:24:53Z</time>
      </trkpt>
      <trkpt lat="44.23037" lon="0.69294">
        <ele>119.82141113281</ele>
        <time>2015-02-12T15:25:09Z</time>
      </trkpt>
      <trkpt lat="44.23052" lon="0.69285">
        <ele>115.97619628906</ele>
        <time>2015-02-12T15:25:27Z</time>
      </trkpt>
      <trkpt lat="44.23068" lon="0.69271">
        <ele>115.97619628906</ele>
        <time>2015-02-12T15:25:41Z</time>
      </trkpt>
      <trkpt lat="44.23071" lon="0.69269">
        <ele>115.49560546875</ele>
        <time>2015-02-12T15:25:43Z</time>
      </trkpt>
      <trkpt lat="44.23077" lon="0.69262">
        <ele>114.05358886719</ele>
        <time>2015-02-12T15:25:49Z</time>
      </trkpt>
      <trkpt lat="44.23084" lon="0.69248">
        <ele>111.65026855469</ele>
        <time>2015-02-12T15:25:59Z</time>
      </trkpt>
      <trkpt lat="44.23087" lon="0.69235">
        <ele>109.24694824219</ele>
        <time>2015-02-12T15:26:09Z</time>
      </trkpt>
      <trkpt lat="44.231" lon="0.69212">
        <ele>109.72766113281</ele>
        <time>2015-02-12T15:26:23Z</time>
      </trkpt>
      <trkpt lat="44.23106" lon="0.69189">
        <ele>109.72766113281</ele>
        <time>2015-02-12T15:26:39Z</time>
      </trkpt>
      <trkpt lat="44.231" lon="0.69159">
        <ele>107.80505371094</ele>
        <time>2015-02-12T15:26:56Z</time>
      </trkpt>
      <trkpt lat="44.23092" lon="0.69117">
        <ele>105.88244628906</ele>
        <time>2015-02-12T15:27:25Z</time>
      </trkpt>
      <trkpt lat="44.23086" lon="0.69082">
        <ele>103.47900390625</ele>
        <time>2015-02-12T15:27:48Z</time>
      </trkpt>
      <trkpt lat="44.23079" lon="0.69057">
        <ele>100.11450195312</ele>
        <time>2015-02-12T15:28:07Z</time>
      </trkpt>
      <trkpt lat="44.23074" lon="0.69038">
        <ele>97.23046875</ele>
        <time>2015-02-12T15:28:23Z</time>
      </trkpt>
      <trkpt lat="44.23067" lon="0.69016">
        <ele>93.865844726562</ele>
        <time>2015-02-12T15:28:41Z</time>
      </trkpt>
      <trkpt lat="44.23075" lon="0.68988">
        <ele>92.423950195312</ele>
        <time>2015-02-12T15:29:01Z</time>
      </trkpt>
      <trkpt lat="44.2309" lon="0.68957">
        <ele>87.136596679688</ele>
        <time>2015-02-12T15:29:23Z</time>
      </trkpt>
      <trkpt lat="44.231" lon="0.68924">
        <ele>79.926635742188</ele>
        <time>2015-02-12T15:29:49Z</time>
      </trkpt>
      <trkpt lat="44.231" lon="0.68922">
        <ele>79.446044921875</ele>
        <time>2015-02-12T15:29:51Z</time>
      </trkpt>
      <trkpt lat="44.23101" lon="0.68904">
        <ele>77.042846679688</ele>
        <time>2015-02-12T15:30:02Z</time>
      </trkpt>
      <trkpt lat="44.23106" lon="0.6887">
        <ele>74.639526367188</ele>
        <time>2015-02-12T15:30:24Z</time>
      </trkpt>
      <trkpt lat="44.23108" lon="0.68836">
        <ele>74.158813476562</ele>
        <time>2015-02-12T15:30:43Z</time>
      </trkpt>
      <trkpt lat="44.23108" lon="0.68833">
        <ele>73.67822265625</ele>
        <time>2015-02-12T15:30:45Z</time>
      </trkpt>
      <trkpt lat="44.2311" lon="0.68817">
        <ele>73.197631835938</ele>
        <time>2015-02-12T15:30:54Z</time>
      </trkpt>
      <trkpt lat="44.23109" lon="0.68812">
        <ele>73.197631835938</ele>
        <time>2015-02-12T15:30:57Z</time>
      </trkpt>
      <trkpt lat="44.2311" lon="0.68804">
        <ele>73.197631835938</ele>
        <time>2015-02-12T15:31:04Z</time>
      </trkpt>
      <trkpt lat="44.23109" lon="0.6878">
        <ele>73.67822265625</ele>
        <time>2015-02-12T15:31:19Z</time>
      </trkpt>
      <trkpt lat="44.23109" lon="0.68779">
        <ele>74.158813476562</ele>
        <time>2015-02-12T15:31:20Z</time>
      </trkpt>
      <trkpt lat="44.23107" lon="0.68754">
        <ele>77.5234375</ele>
        <time>2015-02-12T15:31:36Z</time>
      </trkpt>
      <trkpt lat="44.23112" lon="0.68737">
        <ele>78.004028320312</ele>
        <time>2015-02-12T15:31:54Z</time>
      </trkpt>
      <trkpt lat="44.23116" lon="0.68729">
        <ele>78.965454101562</ele>
        <time>2015-02-12T15:32:05Z</time>
      </trkpt>
      <trkpt lat="44.2312" lon="0.68725">
        <ele>80.407470703125</ele>
        <time>2015-02-12T15:32:11Z</time>
      </trkpt>
      <trkpt lat="44.2313" lon="0.68717">
        <ele>82.330078125</ele>
        <time>2015-02-12T15:32:23Z</time>
      </trkpt>
      <trkpt lat="44.23144" lon="0.68702">
        <ele>86.656005859375</ele>
        <time>2015-02-12T15:32:40Z</time>
      </trkpt>
      <trkpt lat="44.23152" lon="0.68688">
        <ele>90.020629882812</ele>
        <time>2015-02-12T15:32:55Z</time>
      </trkpt>
      <trkpt lat="44.23151" lon="0.68685">
        <ele>89.539916992188</ele>
        <time>2015-02-12T15:33:20Z</time>
      </trkpt>
      <trkpt lat="44.23156" lon="0.68678">
        <ele>89.539916992188</ele>
        <time>2015-02-12T15:33:34Z</time>
      </trkpt>
      <trkpt lat="44.23166" lon="0.68667">
        <ele>89.059326171875</ele>
        <time>2015-02-12T15:33:49Z</time>
      </trkpt>
      <trkpt lat="44.2317" lon="0.68651">
        <ele>88.578735351562</ele>
        <time>2015-02-12T15:34:05Z</time>
      </trkpt>
      <trkpt lat="44.2317" lon="0.68633">
        <ele>90.020629882812</ele>
        <time>2015-02-12T15:34:34Z</time>
      </trkpt>
      <trkpt lat="44.23169" lon="0.68629">
        <ele>90.020629882812</ele>
        <time>2015-02-12T15:34:37Z</time>
      </trkpt>
      <trkpt lat="44.23165" lon="0.68613">
        <ele>90.501342773438</ele>
        <time>2015-02-12T15:34:47Z</time>
      </trkpt>
      <trkpt lat="44.23162" lon="0.68605">
        <ele>91.462524414062</ele>
        <time>2015-02-12T15:34:52Z</time>
      </trkpt>
      <trkpt lat="44.23161" lon="0.68598">
        <ele>91.462524414062</ele>
        <time>2015-02-12T15:34:56Z</time>
      </trkpt>
      <trkpt lat="44.23162" lon="0.68581">
        <ele>91.943237304688</ele>
        <time>2015-02-12T15:35:05Z</time>
      </trkpt>
      <trkpt lat="44.2316" lon="0.68574">
        <ele>92.423950195312</ele>
        <time>2015-02-12T15:35:10Z</time>
      </trkpt>
      <trkpt lat="44.23156" lon="0.68554">
        <ele>89.059326171875</ele>
        <time>2015-02-12T15:35:25Z</time>
      </trkpt>
      <trkpt lat="44.23155" lon="0.68541">
        <ele>87.6171875</ele>
        <time>2015-02-12T15:35:37Z</time>
      </trkpt>
      <trkpt lat="44.23153" lon="0.68531">
        <ele>88.578735351562</ele>
        <time>2015-02-12T15:35:43Z</time>
      </trkpt>
      <trkpt lat="44.2315" lon="0.68511">
        <ele>88.578735351562</ele>
        <time>2015-02-12T15:35:52Z</time>
      </trkpt>
      <trkpt lat="44.2315" lon="0.68504">
        <ele>87.136596679688</ele>
        <time>2015-02-12T15:35:57Z</time>
      </trkpt>
      <trkpt lat="44.23144" lon="0.68477">
        <ele>87.136596679688</ele>
        <time>2015-02-12T15:36:11Z</time>
      </trkpt>
      <trkpt lat="44.23137" lon="0.68449">
        <ele>82.330078125</ele>
        <time>2015-02-12T15:36:29Z</time>
      </trkpt>
      <trkpt lat="44.23133" lon="0.68432">
        <ele>84.7333984375</ele>
        <time>2015-02-12T15:36:40Z</time>
      </trkpt>
      <trkpt lat="44.23133" lon="0.68424">
        <ele>84.7333984375</ele>
        <time>2015-02-12T15:36:46Z</time>
      </trkpt>
      <trkpt lat="44.23128" lon="0.68406">
        <ele>82.810791015625</ele>
        <time>2015-02-12T15:36:58Z</time>
      </trkpt>
      <trkpt lat="44.23129" lon="0.68396">
        <ele>82.810791015625</ele>
        <time>2015-02-12T15:37:04Z</time>
      </trkpt>
      <trkpt lat="44.23129" lon="0.6838">
        <ele>80.407470703125</ele>
        <time>2015-02-12T15:37:13Z</time>
      </trkpt>
      <trkpt lat="44.23132" lon="0.68359">
        <ele>76.562133789062</ele>
        <time>2015-02-12T15:37:27Z</time>
      </trkpt>
      <trkpt lat="44.23135" lon="0.68335">
        <ele>73.197631835938</ele>
        <time>2015-02-12T15:37:44Z</time>
      </trkpt>
      <trkpt lat="44.23133" lon="0.68307">
        <ele>72.716918945312</ele>
        <time>2015-02-12T15:37:59Z</time>
      </trkpt>
      <trkpt lat="44.23126" lon="0.68288">
        <ele>74.639526367188</ele>
        <time>2015-02-12T15:38:14Z</time>
      </trkpt>
      <trkpt lat="44.23122" lon="0.68273">
        <ele>74.158813476562</ele>
        <time>2015-02-12T15:38:24Z</time>
      </trkpt>
      <trkpt lat="44.23121" lon="0.6827">
        <ele>74.158813476562</ele>
        <time>2015-02-12T15:38:27Z</time>
      </trkpt>
      <trkpt lat="44.23121" lon="0.68266">
        <ele>73.67822265625</ele>
        <time>2015-02-12T15:38:30Z</time>
      </trkpt>
      <trkpt lat="44.23124" lon="0.68261">
        <ele>72.716918945312</ele>
        <time>2015-02-12T15:38:34Z</time>
      </trkpt>
      <trkpt lat="44.23134" lon="0.68226">
        <ele>72.716918945312</ele>
        <time>2015-02-12T15:38:57Z</time>
      </trkpt>
      <trkpt lat="44.23141" lon="0.68218">
        <ele>73.197631835938</ele>
        <time>2015-02-12T15:39:06Z</time>
      </trkpt>
      <trkpt lat="44.23147" lon="0.68214">
        <ele>72.236206054688</ele>
        <time>2015-02-12T15:39:12Z</time>
      </trkpt>
      <trkpt lat="44.23156" lon="0.68208">
        <ele>70.794189453125</ele>
        <time>2015-02-12T15:39:23Z</time>
      </trkpt>
      <trkpt lat="44.23168" lon="0.68202">
        <ele>71.27490234375</ele>
        <time>2015-02-12T15:39:36Z</time>
      </trkpt>
      <trkpt lat="44.23182" lon="0.68193">
        <ele>70.3134765625</ele>
        <time>2015-02-12T15:39:50Z</time>
      </trkpt>
      <trkpt lat="44.23191" lon="0.68183">
        <ele>70.3134765625</ele>
        <time>2015-02-12T15:40:01Z</time>
      </trkpt>
      <trkpt lat="44.23192" lon="0.68183">
        <ele>69.352294921875</ele>
        <time>2015-02-12T15:40:03Z</time>
      </trkpt>
      <trkpt lat="44.23198" lon="0.68185">
        <ele>68.87158203125</ele>
        <time>2015-02-12T15:40:07Z</time>
      </trkpt>
      <trkpt lat="44.23213" lon="0.68196">
        <ele>66.948974609375</ele>
        <time>2015-02-12T15:40:24Z</time>
      </trkpt>
      <trkpt lat="44.23229" lon="0.68208">
        <ele>65.987670898438</ele>
        <time>2015-02-12T15:40:43Z</time>
      </trkpt>
      <trkpt lat="44.23242" lon="0.68206">
        <ele>66.46826171875</ele>
        <time>2015-02-12T15:40:58Z</time>
      </trkpt>
      <trkpt lat="44.23248" lon="0.68205">
        <ele>65.507080078125</ele>
        <time>2015-02-12T15:41:05Z</time>
      </trkpt>
      <trkpt lat="44.23253" lon="0.68214">
        <ele>65.0263671875</ele>
        <time>2015-02-12T15:41:13Z</time>
      </trkpt>
      <trkpt lat="44.23258" lon="0.6824">
        <ele>63.584350585938</ele>
        <time>2015-02-12T15:41:32Z</time>
      </trkpt>
      <trkpt lat="44.23259" lon="0.68246">
        <ele>63.584350585938</ele>
        <time>2015-02-12T15:41:36Z</time>
      </trkpt>
      <trkpt lat="44.2326" lon="0.68262">
        <ele>62.622924804688</ele>
        <time>2015-02-12T15:41:50Z</time>
      </trkpt>
      <trkpt lat="44.23259" lon="0.68264">
        <ele>63.103637695312</ele>
        <time>2015-02-12T15:42:33Z</time>
      </trkpt>
      <trkpt lat="44.23259" lon="0.68264">
        <ele>63.103637695312</ele>
        <time>2015-02-12T15:42:41Z</time>
      </trkpt>
    </trkseg>
  </trk>
</gpx>